<?xml version='1.0' encoding='UTF-8'?>
<gpx version="1.1" creator="https://www.komoot.de" xmlns="http://www.topografix.com/GPX/1/1" xmlns:xsi="http://www.w3.org/2001/XMLSchema-instance" xsi:schemaLocation="http://www.topografix.com/GPX/1/1 http://www.topografix.com/GPX/1/1/gpx.xsd">
  <metadata>
    <name>ATB Brabantia 2024 - 55km definitief v2</name>
    <author>
      <link href="https://www.komoot.de">
        <text>komoot</text>
        <type>text/html</type>
      </link>
    </author>
  </metadata>
  <trk>
    <name>ATB Brabantia 2024 - 55km definitief v2</name>
    <trkseg>
      <trkpt lat="51.417375" lon="5.351724">
        <ele>24.198719</ele>
        <time>2024-11-28T16:58:32.063Z</time>
      </trkpt>
      <trkpt lat="51.417415" lon="5.351557">
        <ele>24.198719</ele>
        <time>2024-11-28T16:58:33.895Z</time>
      </trkpt>
      <trkpt lat="51.417428" lon="5.351305">
        <ele>24.198719</ele>
        <time>2024-11-28T16:58:36.515Z</time>
      </trkpt>
      <trkpt lat="51.417400" lon="5.350696">
        <ele>24.198719</ele>
        <time>2024-11-28T16:58:42.857Z</time>
      </trkpt>
      <trkpt lat="51.417344" lon="5.349908">
        <ele>24.191300</ele>
        <time>2024-11-28T16:58:50.809Z</time>
      </trkpt>
      <trkpt lat="51.417260" lon="5.349522">
        <ele>24.183592</ele>
        <time>2024-11-28T16:58:54.712Z</time>
      </trkpt>
      <trkpt lat="51.417240" lon="5.349374">
        <ele>24.180737</ele>
        <time>2024-11-28T16:58:56.140Z</time>
      </trkpt>
      <trkpt lat="51.417261" lon="5.349021">
        <ele>24.174051</ele>
        <time>2024-11-28T16:58:59.536Z</time>
      </trkpt>
      <trkpt lat="51.417433" lon="5.347927">
        <ele>24.152778</ele>
        <time>2024-11-28T16:59:10.253Z</time>
      </trkpt>
      <trkpt lat="51.417495" lon="5.347579">
        <ele>24.145954</ele>
        <time>2024-11-28T16:59:13.564Z</time>
      </trkpt>
      <trkpt lat="51.417694" lon="5.345896">
        <ele>23.919398</ele>
        <time>2024-11-28T16:59:29.408Z</time>
      </trkpt>
      <trkpt lat="51.417939" lon="5.343517">
        <ele>23.646196</ele>
        <time>2024-11-28T16:59:51.863Z</time>
      </trkpt>
      <trkpt lat="51.417921" lon="5.343282">
        <ele>23.625792</ele>
        <time>2024-11-28T16:59:54.066Z</time>
      </trkpt>
      <trkpt lat="51.417981" lon="5.342086">
        <ele>23.522390</ele>
        <time>2024-11-28T17:00:05.280Z</time>
      </trkpt>
      <trkpt lat="51.418122" lon="5.341328">
        <ele>23.527000</ele>
        <time>2024-11-28T17:00:12.711Z</time>
      </trkpt>
      <trkpt lat="51.418147" lon="5.341351">
        <ele>23.529772</ele>
        <time>2024-11-28T17:00:13.434Z</time>
      </trkpt>
      <trkpt lat="51.418381" lon="5.341423">
        <ele>23.552684</ele>
        <time>2024-11-28T17:00:19.571Z</time>
      </trkpt>
      <trkpt lat="51.418955" lon="5.341385">
        <ele>23.607928</ele>
        <time>2024-11-28T17:00:34.166Z</time>
      </trkpt>
      <trkpt lat="51.418955" lon="5.341385">
        <ele>23.607928</ele>
        <time>2024-11-28T17:00:34.183Z</time>
      </trkpt>
      <trkpt lat="51.419133" lon="5.340262">
        <ele>23.702151</ele>
        <time>2024-11-28T17:01:05.086Z</time>
      </trkpt>
      <trkpt lat="51.419310" lon="5.339138">
        <ele>24.006737</ele>
        <time>2024-11-28T17:01:36.005Z</time>
      </trkpt>
      <trkpt lat="51.419488" lon="5.338015">
        <ele>24.311171</ele>
        <time>2024-11-28T17:02:06.908Z</time>
      </trkpt>
      <trkpt lat="51.419666" lon="5.336891">
        <ele>24.448877</ele>
        <time>2024-11-28T17:02:37.837Z</time>
      </trkpt>
      <trkpt lat="51.419666" lon="5.336891">
        <ele>24.448877</ele>
        <time>2024-11-28T17:02:37.847Z</time>
      </trkpt>
      <trkpt lat="51.421496" lon="5.336894">
        <ele>24.359154</ele>
        <time>2024-11-28T17:03:24.061Z</time>
      </trkpt>
      <trkpt lat="51.421654" lon="5.338333">
        <ele>24.066535</ele>
        <time>2024-11-28T17:03:46.531Z</time>
      </trkpt>
      <trkpt lat="51.422506" lon="5.338441">
        <ele>23.707050</ele>
        <time>2024-11-28T17:04:07.156Z</time>
      </trkpt>
      <trkpt lat="51.422530" lon="5.336901">
        <ele>23.214912</ele>
        <time>2024-11-28T17:04:30.138Z</time>
      </trkpt>
      <trkpt lat="51.423631" lon="5.336905">
        <ele>23.110137</ele>
        <time>2024-11-28T17:04:57.717Z</time>
      </trkpt>
      <trkpt lat="51.423191" lon="5.335966">
        <ele>23.210279</ele>
        <time>2024-11-28T17:05:17.137Z</time>
      </trkpt>
      <trkpt lat="51.422348" lon="5.334066">
        <ele>23.703013</ele>
        <time>2024-11-28T17:05:56.571Z</time>
      </trkpt>
      <trkpt lat="51.421707" lon="5.332666">
        <ele>24.021817</ele>
        <time>2024-11-28T17:06:26.237Z</time>
      </trkpt>
      <trkpt lat="51.424417" lon="5.331731">
        <ele>23.981959</ele>
        <time>2024-11-28T17:07:36.321Z</time>
      </trkpt>
      <trkpt lat="51.424810" lon="5.331574">
        <ele>23.932021</ele>
        <time>2024-11-28T17:07:46.141Z</time>
      </trkpt>
      <trkpt lat="51.424833" lon="5.331508">
        <ele>23.927039</ele>
        <time>2024-11-28T17:07:47.301Z</time>
      </trkpt>
      <trkpt lat="51.424234" lon="5.327023">
        <ele>23.850824</ele>
        <time>2024-11-28T17:09:00.859Z</time>
      </trkpt>
      <trkpt lat="51.426040" lon="5.326379">
        <ele>23.277706</ele>
        <time>2024-11-28T17:09:46.656Z</time>
      </trkpt>
      <trkpt lat="51.426863" lon="5.326090">
        <ele>22.828324</ele>
        <time>2024-11-28T17:10:06.847Z</time>
      </trkpt>
      <trkpt lat="51.427161" lon="5.328194">
        <ele>21.736382</ele>
        <time>2024-11-28T17:10:38.155Z</time>
      </trkpt>
      <trkpt lat="51.428626" lon="5.327873">
        <ele>21.500467</ele>
        <time>2024-11-28T17:11:14.813Z</time>
      </trkpt>
      <trkpt lat="51.429154" lon="5.327757">
        <ele>21.500180</ele>
        <time>2024-11-28T17:11:29.467Z</time>
      </trkpt>
      <trkpt lat="51.429208" lon="5.327812">
        <ele>21.500145</ele>
        <time>2024-11-28T17:11:31.181Z</time>
      </trkpt>
      <trkpt lat="51.429208" lon="5.327812">
        <ele>21.500145</ele>
        <time>2024-11-28T17:11:31.196Z</time>
      </trkpt>
      <trkpt lat="51.429208" lon="5.327813">
        <ele>21.500145</ele>
        <time>2024-11-28T17:11:31.222Z</time>
      </trkpt>
      <trkpt lat="51.429295" lon="5.327704">
        <ele>21.584925</ele>
        <time>2024-11-28T17:11:35.944Z</time>
      </trkpt>
      <trkpt lat="51.429458" lon="5.327668">
        <ele>21.727247</ele>
        <time>2024-11-28T17:11:42.980Z</time>
      </trkpt>
      <trkpt lat="51.429642" lon="5.327608">
        <ele>21.889659</ele>
        <time>2024-11-28T17:11:51.012Z</time>
      </trkpt>
      <trkpt lat="51.429680" lon="5.327601">
        <ele>21.922744</ele>
        <time>2024-11-28T17:11:52.648Z</time>
      </trkpt>
      <trkpt lat="51.429722" lon="5.327622">
        <ele>21.960797</ele>
        <time>2024-11-28T17:11:54.528Z</time>
      </trkpt>
      <trkpt lat="51.429766" lon="5.327683">
        <ele>22.011103</ele>
        <time>2024-11-28T17:11:57.016Z</time>
      </trkpt>
      <trkpt lat="51.429816" lon="5.327783">
        <ele>22.080232</ele>
        <time>2024-11-28T17:12:00.434Z</time>
      </trkpt>
      <trkpt lat="51.429847" lon="5.327916">
        <ele>22.156806</ele>
        <time>2024-11-28T17:12:04.220Z</time>
      </trkpt>
      <trkpt lat="51.429866" lon="5.327989">
        <ele>22.199467</ele>
        <time>2024-11-28T17:12:06.331Z</time>
      </trkpt>
      <trkpt lat="51.429950" lon="5.328338">
        <ele>22.401217</ele>
        <time>2024-11-28T17:12:16.306Z</time>
      </trkpt>
      <trkpt lat="51.429969" lon="5.328391">
        <ele>22.434187</ele>
        <time>2024-11-28T17:12:17.936Z</time>
      </trkpt>
      <trkpt lat="51.430027" lon="5.328425">
        <ele>22.487601</ele>
        <time>2024-11-28T17:12:20.577Z</time>
      </trkpt>
      <trkpt lat="51.430134" lon="5.328380">
        <ele>22.583283</ele>
        <time>2024-11-28T17:12:25.309Z</time>
      </trkpt>
      <trkpt lat="51.430169" lon="5.328348">
        <ele>22.618130</ele>
        <time>2024-11-28T17:12:27.031Z</time>
      </trkpt>
      <trkpt lat="51.430257" lon="5.328301">
        <ele>22.698357</ele>
        <time>2024-11-28T17:12:30.998Z</time>
      </trkpt>
      <trkpt lat="51.430348" lon="5.328260">
        <ele>22.780117</ele>
        <time>2024-11-28T17:12:35.041Z</time>
      </trkpt>
      <trkpt lat="51.430509" lon="5.328200">
        <ele>22.923088</ele>
        <time>2024-11-28T17:12:42.110Z</time>
      </trkpt>
      <trkpt lat="51.430530" lon="5.328287">
        <ele>22.973399</ele>
        <time>2024-11-28T17:12:44.597Z</time>
      </trkpt>
      <trkpt lat="51.430530" lon="5.328287">
        <ele>22.973399</ele>
        <time>2024-11-28T17:12:44.605Z</time>
      </trkpt>
      <trkpt lat="51.431498" lon="5.327671">
        <ele>23.429314</ele>
        <time>2024-11-28T17:13:13.043Z</time>
      </trkpt>
      <trkpt lat="51.432639" lon="5.326979">
        <ele>23.901863</ele>
        <time>2024-11-28T17:13:44.786Z</time>
      </trkpt>
      <trkpt lat="51.432179" lon="5.324846">
        <ele>24.423044</ele>
        <time>2024-11-28T17:14:23.365Z</time>
      </trkpt>
      <trkpt lat="51.431996" lon="5.322862">
        <ele>24.644726</ele>
        <time>2024-11-28T17:14:56.135Z</time>
      </trkpt>
      <trkpt lat="51.431830" lon="5.321139">
        <ele>24.532335</ele>
        <time>2024-11-28T17:15:24.224Z</time>
      </trkpt>
      <trkpt lat="51.431790" lon="5.320713">
        <ele>24.421776</ele>
        <time>2024-11-28T17:15:30.896Z</time>
      </trkpt>
      <trkpt lat="51.431691" lon="5.319655">
        <ele>24.147216</ele>
        <time>2024-11-28T17:15:46.868Z</time>
      </trkpt>
      <trkpt lat="51.431593" lon="5.318623">
        <ele>23.845305</ele>
        <time>2024-11-28T17:16:02.107Z</time>
      </trkpt>
      <trkpt lat="51.430334" lon="5.316731">
        <ele>23.149269</ele>
        <time>2024-11-28T17:16:44.035Z</time>
      </trkpt>
      <trkpt lat="51.429355" lon="5.313401">
        <ele>24.051463</ele>
        <time>2024-11-28T17:17:47.985Z</time>
      </trkpt>
      <trkpt lat="51.429290" lon="5.313112">
        <ele>24.129268</ele>
        <time>2024-11-28T17:17:53.227Z</time>
      </trkpt>
      <trkpt lat="51.429230" lon="5.311555">
        <ele>24.485065</ele>
        <time>2024-11-28T17:18:19.013Z</time>
      </trkpt>
      <trkpt lat="51.429230" lon="5.311555">
        <ele>24.485065</ele>
        <time>2024-11-28T17:18:19.030Z</time>
      </trkpt>
      <trkpt lat="51.429288" lon="5.311707">
        <ele>24.482247</ele>
        <time>2024-11-28T17:18:23.781Z</time>
      </trkpt>
      <trkpt lat="51.429280" lon="5.311157">
        <ele>24.473546</ele>
        <time>2024-11-28T17:18:38.452Z</time>
      </trkpt>
      <trkpt lat="51.429290" lon="5.311067">
        <ele>24.472100</ele>
        <time>2024-11-28T17:18:40.888Z</time>
      </trkpt>
      <trkpt lat="51.429396" lon="5.310887">
        <ele>24.468184</ele>
        <time>2024-11-28T17:18:47.490Z</time>
      </trkpt>
      <trkpt lat="51.429669" lon="5.310527">
        <ele>24.459219</ele>
        <time>2024-11-28T17:19:02.605Z</time>
      </trkpt>
      <trkpt lat="51.429801" lon="5.310383">
        <ele>24.455170</ele>
        <time>2024-11-28T17:19:09.434Z</time>
      </trkpt>
      <trkpt lat="51.429888" lon="5.310272">
        <ele>24.452350</ele>
        <time>2024-11-28T17:19:14.188Z</time>
      </trkpt>
      <trkpt lat="51.429976" lon="5.310168">
        <ele>24.449577</ele>
        <time>2024-11-28T17:19:18.862Z</time>
      </trkpt>
      <trkpt lat="51.430144" lon="5.309960">
        <ele>24.444194</ele>
        <time>2024-11-28T17:19:27.939Z</time>
      </trkpt>
      <trkpt lat="51.430313" lon="5.309899">
        <ele>24.392054</ele>
        <time>2024-11-28T17:19:35.347Z</time>
      </trkpt>
      <trkpt lat="51.430313" lon="5.309899">
        <ele>24.392054</ele>
        <time>2024-11-28T17:19:35.375Z</time>
      </trkpt>
      <trkpt lat="51.430301" lon="5.309814">
        <ele>24.356899</ele>
        <time>2024-11-28T17:19:36.673Z</time>
      </trkpt>
      <trkpt lat="51.430317" lon="5.309698">
        <ele>24.308976</ele>
        <time>2024-11-28T17:19:38.403Z</time>
      </trkpt>
      <trkpt lat="51.430507" lon="5.309481">
        <ele>24.158068</ele>
        <time>2024-11-28T17:19:44.089Z</time>
      </trkpt>
      <trkpt lat="51.430602" lon="5.309383">
        <ele>24.084989</ele>
        <time>2024-11-28T17:19:46.798Z</time>
      </trkpt>
      <trkpt lat="51.431112" lon="5.308836">
        <ele>23.688049</ele>
        <time>2024-11-28T17:20:01.464Z</time>
      </trkpt>
      <trkpt lat="51.431621" lon="5.308288">
        <ele>23.291423</ele>
        <time>2024-11-28T17:20:15.965Z</time>
      </trkpt>
      <trkpt lat="51.431918" lon="5.307975">
        <ele>23.216031</ele>
        <time>2024-11-28T17:20:24.456Z</time>
      </trkpt>
      <trkpt lat="51.432214" lon="5.307661">
        <ele>23.150280</ele>
        <time>2024-11-28T17:20:33.130Z</time>
      </trkpt>
      <trkpt lat="51.432629" lon="5.307220">
        <ele>23.058047</ele>
        <time>2024-11-28T17:20:45.610Z</time>
      </trkpt>
      <trkpt lat="51.434088" lon="5.305663">
        <ele>23.203655</ele>
        <time>2024-11-28T17:21:31.954Z</time>
      </trkpt>
      <trkpt lat="51.435049" lon="5.304637">
        <ele>23.313442</ele>
        <time>2024-11-28T17:22:02.352Z</time>
      </trkpt>
      <trkpt lat="51.435652" lon="5.305047">
        <ele>23.261548</ele>
        <time>2024-11-28T17:22:18.722Z</time>
      </trkpt>
      <trkpt lat="51.435432" lon="5.305824">
        <ele>23.219395</ele>
        <time>2024-11-28T17:22:31.898Z</time>
      </trkpt>
      <trkpt lat="51.435649" lon="5.305933">
        <ele>23.214205</ele>
        <time>2024-11-28T17:22:37.541Z</time>
      </trkpt>
      <trkpt lat="51.435744" lon="5.306135">
        <ele>23.219684</ele>
        <time>2024-11-28T17:22:41.512Z</time>
      </trkpt>
      <trkpt lat="51.435765" lon="5.306490">
        <ele>23.227404</ele>
        <time>2024-11-28T17:22:47.161Z</time>
      </trkpt>
      <trkpt lat="51.435843" lon="5.306615">
        <ele>23.231233</ele>
        <time>2024-11-28T17:22:49.959Z</time>
      </trkpt>
      <trkpt lat="51.436364" lon="5.306678">
        <ele>23.249380</ele>
        <time>2024-11-28T17:23:03.242Z</time>
      </trkpt>
      <trkpt lat="51.436702" lon="5.307042">
        <ele>23.263519</ele>
        <time>2024-11-28T17:23:13.910Z</time>
      </trkpt>
      <trkpt lat="51.437058" lon="5.307508">
        <ele>23.318069</ele>
        <time>2024-11-28T17:23:26.035Z</time>
      </trkpt>
      <trkpt lat="51.437557" lon="5.308091">
        <ele>23.462776</ele>
        <time>2024-11-28T17:23:42.309Z</time>
      </trkpt>
      <trkpt lat="51.437903" lon="5.304877">
        <ele>23.787014</ele>
        <time>2024-11-28T17:26:03.587Z</time>
      </trkpt>
      <trkpt lat="51.438103" lon="5.302850">
        <ele>23.946093</ele>
        <time>2024-11-28T17:27:32.493Z</time>
      </trkpt>
      <trkpt lat="51.439149" lon="5.300001">
        <ele>24.158720</ele>
        <time>2024-11-28T17:29:55.758Z</time>
      </trkpt>
      <trkpt lat="51.439243" lon="5.299743">
        <ele>24.156158</ele>
        <time>2024-11-28T17:30:08.684Z</time>
      </trkpt>
      <trkpt lat="51.439628" lon="5.298696">
        <ele>24.145740</ele>
        <time>2024-11-28T17:31:01.349Z</time>
      </trkpt>
      <trkpt lat="51.440357" lon="5.296709">
        <ele>23.423195</ele>
        <time>2024-11-28T17:32:41.255Z</time>
      </trkpt>
      <trkpt lat="51.437927" lon="5.291510">
        <ele>22.121177</ele>
        <time>2024-11-28T17:34:21.439Z</time>
      </trkpt>
      <trkpt lat="51.437927" lon="5.291510">
        <ele>22.121177</ele>
        <time>2024-11-28T17:34:21.444Z</time>
      </trkpt>
      <trkpt lat="51.437395" lon="5.290303">
        <ele>22.006310</ele>
        <time>2024-11-28T17:34:44.444Z</time>
      </trkpt>
      <trkpt lat="51.436280" lon="5.287857">
        <ele>21.942657</ele>
        <time>2024-11-28T17:35:32.467Z</time>
      </trkpt>
      <trkpt lat="51.436053" lon="5.287357">
        <ele>21.958465</ele>
        <time>2024-11-28T17:35:42.487Z</time>
      </trkpt>
      <trkpt lat="51.435380" lon="5.285727">
        <ele>21.953311</ele>
        <time>2024-11-28T17:36:13.959Z</time>
      </trkpt>
      <trkpt lat="51.433698" lon="5.283333">
        <ele>21.715079</ele>
        <time>2024-11-28T17:37:10.324Z</time>
      </trkpt>
      <trkpt lat="51.433637" lon="5.283421">
        <ele>21.701442</ele>
        <time>2024-11-28T17:37:12.360Z</time>
      </trkpt>
      <trkpt lat="51.432705" lon="5.284783">
        <ele>21.647287</ele>
        <time>2024-11-28T17:37:44.051Z</time>
      </trkpt>
      <trkpt lat="51.432368" lon="5.285536">
        <ele>21.658511</ele>
        <time>2024-11-28T17:37:59.266Z</time>
      </trkpt>
      <trkpt lat="51.432661" lon="5.286822">
        <ele>21.585992</ele>
        <time>2024-11-28T17:38:20.903Z</time>
      </trkpt>
      <trkpt lat="51.432698" lon="5.286985">
        <ele>21.567592</ele>
        <time>2024-11-28T17:38:23.635Z</time>
      </trkpt>
      <trkpt lat="51.432375" lon="5.287152">
        <ele>21.509851</ele>
        <time>2024-11-28T17:38:28.696Z</time>
      </trkpt>
      <trkpt lat="51.430285" lon="5.288265">
        <ele>21.235134</ele>
        <time>2024-11-28T17:39:01.084Z</time>
      </trkpt>
      <trkpt lat="51.429387" lon="5.288871">
        <ele>21.382818</ele>
        <time>2024-11-28T17:39:17.480Z</time>
      </trkpt>
      <trkpt lat="51.429094" lon="5.289078">
        <ele>21.507105</ele>
        <time>2024-11-28T17:39:23.201Z</time>
      </trkpt>
      <trkpt lat="51.428516" lon="5.289558">
        <ele>21.759775</ele>
        <time>2024-11-28T17:39:34.704Z</time>
      </trkpt>
      <trkpt lat="51.427653" lon="5.290314">
        <ele>21.992975</ele>
        <time>2024-11-28T17:39:50.263Z</time>
      </trkpt>
      <trkpt lat="51.427054" lon="5.290940">
        <ele>22.107748</ele>
        <time>2024-11-28T17:40:01.421Z</time>
      </trkpt>
      <trkpt lat="51.426848" lon="5.291103">
        <ele>22.144624</ele>
        <time>2024-11-28T17:40:05.166Z</time>
      </trkpt>
      <trkpt lat="51.426668" lon="5.291190">
        <ele>22.174804</ele>
        <time>2024-11-28T17:40:08.166Z</time>
      </trkpt>
      <trkpt lat="51.426179" lon="5.291371">
        <ele>22.312810</ele>
        <time>2024-11-28T17:40:16.229Z</time>
      </trkpt>
      <trkpt lat="51.425874" lon="5.291484">
        <ele>22.399889</ele>
        <time>2024-11-28T17:40:21.513Z</time>
      </trkpt>
      <trkpt lat="51.425770" lon="5.290800">
        <ele>22.522007</ele>
        <time>2024-11-28T17:40:29.421Z</time>
      </trkpt>
      <trkpt lat="51.425600" lon="5.290130">
        <ele>22.647474</ele>
        <time>2024-11-28T17:40:37.212Z</time>
      </trkpt>
      <trkpt lat="51.424501" lon="5.286722">
        <ele>22.844500</ele>
        <time>2024-11-28T17:41:16.929Z</time>
      </trkpt>
      <trkpt lat="51.424176" lon="5.285738">
        <ele>22.828978</ele>
        <time>2024-11-28T17:41:28.041Z</time>
      </trkpt>
      <trkpt lat="51.423901" lon="5.284948">
        <ele>22.816365</ele>
        <time>2024-11-28T17:41:37.035Z</time>
      </trkpt>
      <trkpt lat="51.424292" lon="5.284634">
        <ele>22.831853</ele>
        <time>2024-11-28T17:41:43.551Z</time>
      </trkpt>
      <trkpt lat="51.424638" lon="5.284222">
        <ele>22.850605</ele>
        <time>2024-11-28T17:41:50.102Z</time>
      </trkpt>
      <trkpt lat="51.424940" lon="5.283860">
        <ele>22.867010</ele>
        <time>2024-11-28T17:41:56.225Z</time>
      </trkpt>
      <trkpt lat="51.425177" lon="5.283458">
        <ele>22.882020</ele>
        <time>2024-11-28T17:42:01.972Z</time>
      </trkpt>
      <trkpt lat="51.425285" lon="5.283255">
        <ele>22.889261</ele>
        <time>2024-11-28T17:42:04.645Z</time>
      </trkpt>
      <trkpt lat="51.425438" lon="5.282860">
        <ele>22.849231</ele>
        <time>2024-11-28T17:42:09.097Z</time>
      </trkpt>
      <trkpt lat="51.425551" lon="5.282557">
        <ele>22.799126</ele>
        <time>2024-11-28T17:42:12.434Z</time>
      </trkpt>
      <trkpt lat="51.425647" lon="5.282618">
        <ele>22.775625</ele>
        <time>2024-11-28T17:42:14.523Z</time>
      </trkpt>
      <trkpt lat="51.425689" lon="5.282296">
        <ele>22.728940</ele>
        <time>2024-11-28T17:42:17.633Z</time>
      </trkpt>
      <trkpt lat="51.425887" lon="5.281281">
        <ele>22.578013</ele>
        <time>2024-11-28T17:42:27.426Z</time>
      </trkpt>
      <trkpt lat="51.426379" lon="5.278813">
        <ele>21.872755</ele>
        <time>2024-11-28T17:42:50.173Z</time>
      </trkpt>
      <trkpt lat="51.426621" lon="5.278203">
        <ele>21.643638</ele>
        <time>2024-11-28T17:42:56.791Z</time>
      </trkpt>
      <trkpt lat="51.427344" lon="5.276702">
        <ele>21.320899</ele>
        <time>2024-11-28T17:43:14.202Z</time>
      </trkpt>
      <trkpt lat="51.427583" lon="5.276281">
        <ele>21.235699</ele>
        <time>2024-11-28T17:43:19.454Z</time>
      </trkpt>
      <trkpt lat="51.427597" lon="5.276257">
        <ele>21.230781</ele>
        <time>2024-11-28T17:43:19.755Z</time>
      </trkpt>
      <trkpt lat="51.427673" lon="5.276078">
        <ele>21.198374</ele>
        <time>2024-11-28T17:43:21.860Z</time>
      </trkpt>
      <trkpt lat="51.427837" lon="5.275570">
        <ele>21.147097</ele>
        <time>2024-11-28T17:43:27.151Z</time>
      </trkpt>
      <trkpt lat="51.428133" lon="5.274866">
        <ele>21.191242</ele>
        <time>2024-11-28T17:43:35.082Z</time>
      </trkpt>
      <trkpt lat="51.428636" lon="5.274070">
        <ele>21.250164</ele>
        <time>2024-11-28T17:43:46.319Z</time>
      </trkpt>
      <trkpt lat="51.428885" lon="5.273560">
        <ele>21.283841</ele>
        <time>2024-11-28T17:43:52.995Z</time>
      </trkpt>
      <trkpt lat="51.428982" lon="5.273392">
        <ele>21.336207</ele>
        <time>2024-11-28T17:43:55.401Z</time>
      </trkpt>
      <trkpt lat="51.429017" lon="5.273170">
        <ele>21.412170</ele>
        <time>2024-11-28T17:43:57.939Z</time>
      </trkpt>
      <trkpt lat="51.428899" lon="5.273111">
        <ele>21.477933</ele>
        <time>2024-11-28T17:44:00.158Z</time>
      </trkpt>
      <trkpt lat="51.429208" lon="5.270489">
        <ele>22.307296</ele>
        <time>2024-11-28T17:44:29.714Z</time>
      </trkpt>
      <trkpt lat="51.429380" lon="5.269030">
        <ele>22.566633</ele>
        <time>2024-11-28T17:44:45.401Z</time>
      </trkpt>
      <trkpt lat="51.429450" lon="5.268580">
        <ele>22.647637</ele>
        <time>2024-11-28T17:44:49.974Z</time>
      </trkpt>
      <trkpt lat="51.427560" lon="5.269775">
        <ele>22.657794</ele>
        <time>2024-11-28T17:45:41.166Z</time>
      </trkpt>
      <trkpt lat="51.426800" lon="5.270251">
        <ele>22.798671</ele>
        <time>2024-11-28T17:46:02.153Z</time>
      </trkpt>
      <trkpt lat="51.426561" lon="5.270377">
        <ele>22.852867</ele>
        <time>2024-11-28T17:46:08.827Z</time>
      </trkpt>
      <trkpt lat="51.426469" lon="5.270369">
        <ele>22.872715</ele>
        <time>2024-11-28T17:46:11.311Z</time>
      </trkpt>
      <trkpt lat="51.426359" lon="5.270275">
        <ele>22.899565</ele>
        <time>2024-11-28T17:46:14.711Z</time>
      </trkpt>
      <trkpt lat="51.426251" lon="5.270231">
        <ele>22.923570</ele>
        <time>2024-11-28T17:46:17.699Z</time>
      </trkpt>
      <trkpt lat="51.425666" lon="5.270300">
        <ele>23.051726</ele>
        <time>2024-11-28T17:46:33.293Z</time>
      </trkpt>
      <trkpt lat="51.425292" lon="5.270325">
        <ele>23.144696</ele>
        <time>2024-11-28T17:46:43.298Z</time>
      </trkpt>
      <trkpt lat="51.425038" lon="5.270196">
        <ele>23.210870</ele>
        <time>2024-11-28T17:46:50.544Z</time>
      </trkpt>
      <trkpt lat="51.424864" lon="5.269960">
        <ele>23.267469</ele>
        <time>2024-11-28T17:46:56.681Z</time>
      </trkpt>
      <trkpt lat="51.424770" lon="5.269746">
        <ele>23.308008</ele>
        <time>2024-11-28T17:47:01.043Z</time>
      </trkpt>
      <trkpt lat="51.424810" lon="5.269488">
        <ele>23.349181</ele>
        <time>2024-11-28T17:47:05.431Z</time>
      </trkpt>
      <trkpt lat="51.424891" lon="5.269317">
        <ele>23.382438</ele>
        <time>2024-11-28T17:47:08.942Z</time>
      </trkpt>
      <trkpt lat="51.423932" lon="5.267639">
        <ele>23.437375</ele>
        <time>2024-11-28T17:47:44.998Z</time>
      </trkpt>
      <trkpt lat="51.423484" lon="5.266913">
        <ele>23.407291</ele>
        <time>2024-11-28T17:48:01.072Z</time>
      </trkpt>
      <trkpt lat="51.422599" lon="5.265378">
        <ele>23.349222</ele>
        <time>2024-11-28T17:48:33.862Z</time>
      </trkpt>
      <trkpt lat="51.422780" lon="5.265180">
        <ele>23.339542</ele>
        <time>2024-11-28T17:48:37.204Z</time>
      </trkpt>
      <trkpt lat="51.422960" lon="5.265070">
        <ele>23.331031</ele>
        <time>2024-11-28T17:48:40.158Z</time>
      </trkpt>
      <trkpt lat="51.423170" lon="5.265050">
        <ele>23.321737</ele>
        <time>2024-11-28T17:48:43.436Z</time>
      </trkpt>
      <trkpt lat="51.424412" lon="5.265223">
        <ele>23.297202</ele>
        <time>2024-11-28T17:49:02.975Z</time>
      </trkpt>
      <trkpt lat="51.426584" lon="5.265525">
        <ele>23.041936</ele>
        <time>2024-11-28T17:49:35.599Z</time>
      </trkpt>
      <trkpt lat="51.426761" lon="5.265406">
        <ele>23.012650</ele>
        <time>2024-11-28T17:49:38.518Z</time>
      </trkpt>
      <trkpt lat="51.426365" lon="5.262751">
        <ele>22.931625</ele>
        <time>2024-11-28T17:50:21.535Z</time>
      </trkpt>
      <trkpt lat="51.425968" lon="5.260096">
        <ele>23.097221</ele>
        <time>2024-11-28T17:51:05.133Z</time>
      </trkpt>
      <trkpt lat="51.425995" lon="5.260047">
        <ele>23.101566</ele>
        <time>2024-11-28T17:51:06.232Z</time>
      </trkpt>
      <trkpt lat="51.426675" lon="5.259536">
        <ele>23.332836</ele>
        <time>2024-11-28T17:51:26.456Z</time>
      </trkpt>
      <trkpt lat="51.427130" lon="5.261027">
        <ele>23.707374</ele>
        <time>2024-11-28T17:51:54.801Z</time>
      </trkpt>
      <trkpt lat="51.428548" lon="5.259937">
        <ele>23.722143</ele>
        <time>2024-11-28T17:52:35.350Z</time>
      </trkpt>
      <trkpt lat="51.428152" lon="5.258489">
        <ele>23.615431</ele>
        <time>2024-11-28T17:52:49.298Z</time>
      </trkpt>
      <trkpt lat="51.428076" lon="5.258302">
        <ele>23.593358</ele>
        <time>2024-11-28T17:52:51.235Z</time>
      </trkpt>
      <trkpt lat="51.433734" lon="5.253985">
        <ele>22.764878</ele>
        <time>2024-11-28T17:55:29.220Z</time>
      </trkpt>
      <trkpt lat="51.434426" lon="5.253397">
        <ele>22.820267</ele>
        <time>2024-11-28T17:55:49.485Z</time>
      </trkpt>
      <trkpt lat="51.434480" lon="5.253594">
        <ele>22.835603</ele>
        <time>2024-11-28T17:55:51.724Z</time>
      </trkpt>
      <trkpt lat="51.435280" lon="5.257760">
        <ele>23.198852</ele>
        <time>2024-11-28T17:56:36.965Z</time>
      </trkpt>
      <trkpt lat="51.435540" lon="5.258880">
        <ele>23.277895</ele>
        <time>2024-11-28T17:56:49.656Z</time>
      </trkpt>
      <trkpt lat="51.435788" lon="5.260191">
        <ele>23.358774</ele>
        <time>2024-11-28T17:57:03.959Z</time>
      </trkpt>
      <trkpt lat="51.435793" lon="5.260419">
        <ele>23.372242</ele>
        <time>2024-11-28T17:57:06.250Z</time>
      </trkpt>
      <trkpt lat="51.435796" lon="5.260515">
        <ele>23.377916</ele>
        <time>2024-11-28T17:57:07.171Z</time>
      </trkpt>
      <trkpt lat="51.435854" lon="5.260479">
        <ele>23.383805</ele>
        <time>2024-11-28T17:57:08.222Z</time>
      </trkpt>
      <trkpt lat="51.435907" lon="5.260384">
        <ele>23.391332</ele>
        <time>2024-11-28T17:57:09.564Z</time>
      </trkpt>
      <trkpt lat="51.437111" lon="5.256755">
        <ele>23.361023</ele>
        <time>2024-11-28T17:57:52.617Z</time>
      </trkpt>
      <trkpt lat="51.437315" lon="5.257260">
        <ele>23.446458</ele>
        <time>2024-11-28T17:58:02.952Z</time>
      </trkpt>
      <trkpt lat="51.437534" lon="5.257617">
        <ele>23.517568</ele>
        <time>2024-11-28T17:58:11.577Z</time>
      </trkpt>
      <trkpt lat="51.437750" lon="5.258159">
        <ele>23.596377</ele>
        <time>2024-11-28T17:58:22.564Z</time>
      </trkpt>
      <trkpt lat="51.437963" lon="5.257993">
        <ele>23.563432</ele>
        <time>2024-11-28T17:58:28.959Z</time>
      </trkpt>
      <trkpt lat="51.438018" lon="5.257642">
        <ele>23.532045</ele>
        <time>2024-11-28T17:58:34.786Z</time>
      </trkpt>
      <trkpt lat="51.438167" lon="5.257462">
        <ele>23.506095</ele>
        <time>2024-11-28T17:58:39.467Z</time>
      </trkpt>
      <trkpt lat="51.438194" lon="5.257280">
        <ele>23.489871</ele>
        <time>2024-11-28T17:58:42.375Z</time>
      </trkpt>
      <trkpt lat="51.438336" lon="5.256939">
        <ele>23.454307</ele>
        <time>2024-11-28T17:58:48.668Z</time>
      </trkpt>
      <trkpt lat="51.438493" lon="5.256955">
        <ele>23.432420</ele>
        <time>2024-11-28T17:58:52.510Z</time>
      </trkpt>
      <trkpt lat="51.438503" lon="5.256789">
        <ele>23.417957</ele>
        <time>2024-11-28T17:58:55.046Z</time>
      </trkpt>
      <trkpt lat="51.438861" lon="5.256789">
        <ele>23.368151</ele>
        <time>2024-11-28T17:59:03.755Z</time>
      </trkpt>
      <trkpt lat="51.438895" lon="5.256520">
        <ele>23.352176</ele>
        <time>2024-11-28T17:59:07.944Z</time>
      </trkpt>
      <trkpt lat="51.439075" lon="5.256504">
        <ele>23.357093</ele>
        <time>2024-11-28T17:59:12.426Z</time>
      </trkpt>
      <trkpt lat="51.439124" lon="5.256328">
        <ele>23.360370</ele>
        <time>2024-11-28T17:59:15.446Z</time>
      </trkpt>
      <trkpt lat="51.439289" lon="5.256249">
        <ele>23.365066</ele>
        <time>2024-11-28T17:59:19.804Z</time>
      </trkpt>
      <trkpt lat="51.439517" lon="5.256236">
        <ele>23.371289</ele>
        <time>2024-11-28T17:59:25.660Z</time>
      </trkpt>
      <trkpt lat="51.439673" lon="5.256185">
        <ele>23.375631</ele>
        <time>2024-11-28T17:59:29.852Z</time>
      </trkpt>
      <trkpt lat="51.439674" lon="5.256185">
        <ele>23.375658</ele>
        <time>2024-11-28T17:59:29.862Z</time>
      </trkpt>
      <trkpt lat="51.439854" lon="5.256012">
        <ele>23.381381</ele>
        <time>2024-11-28T17:59:35.398Z</time>
      </trkpt>
      <trkpt lat="51.439711" lon="5.255638">
        <ele>23.388840</ele>
        <time>2024-11-28T17:59:42.582Z</time>
      </trkpt>
      <trkpt lat="51.439794" lon="5.255495">
        <ele>23.392162</ele>
        <time>2024-11-28T17:59:45.742Z</time>
      </trkpt>
      <trkpt lat="51.439917" lon="5.255369">
        <ele>23.396142</ele>
        <time>2024-11-28T17:59:49.539Z</time>
      </trkpt>
      <trkpt lat="51.440092" lon="5.254917">
        <ele>23.320834</ele>
        <time>2024-11-28T17:59:58.132Z</time>
      </trkpt>
      <trkpt lat="51.440185" lon="5.254938">
        <ele>23.282155</ele>
        <time>2024-11-28T18:00:00.576Z</time>
      </trkpt>
      <trkpt lat="51.440352" lon="5.254809">
        <ele>23.205820</ele>
        <time>2024-11-28T18:00:05.322Z</time>
      </trkpt>
      <trkpt lat="51.440612" lon="5.254502">
        <ele>23.072865</ele>
        <time>2024-11-28T18:00:13.416Z</time>
      </trkpt>
      <trkpt lat="51.440184" lon="5.253331">
        <ele>22.724385</ele>
        <time>2024-11-28T18:00:25.260Z</time>
      </trkpt>
      <trkpt lat="51.440639" lon="5.253621">
        <ele>22.409567</ele>
        <time>2024-11-28T18:00:36.847Z</time>
      </trkpt>
      <trkpt lat="51.441019" lon="5.253771">
        <ele>22.114704</ele>
        <time>2024-11-28T18:00:46.097Z</time>
      </trkpt>
      <trkpt lat="51.441163" lon="5.253776">
        <ele>22.006177</ele>
        <time>2024-11-28T18:00:49.503Z</time>
      </trkpt>
      <trkpt lat="51.441314" lon="5.253670">
        <ele>21.881986</ele>
        <time>2024-11-28T18:00:53.382Z</time>
      </trkpt>
      <trkpt lat="51.441453" lon="5.253528">
        <ele>21.757822</ele>
        <time>2024-11-28T18:00:57.273Z</time>
      </trkpt>
      <trkpt lat="51.441540" lon="5.253395">
        <ele>21.667273</ele>
        <time>2024-11-28T18:01:00.137Z</time>
      </trkpt>
      <trkpt lat="51.441687" lon="5.253319">
        <ele>21.550902</ele>
        <time>2024-11-28T18:01:03.816Z</time>
      </trkpt>
      <trkpt lat="51.442406" lon="5.252715">
        <ele>21.080568</ele>
        <time>2024-11-28T18:01:23.373Z</time>
      </trkpt>
      <trkpt lat="51.442473" lon="5.252599">
        <ele>21.035060</ele>
        <time>2024-11-28T18:01:25.791Z</time>
      </trkpt>
      <trkpt lat="51.442566" lon="5.252525">
        <ele>20.987135</ele>
        <time>2024-11-28T18:01:28.308Z</time>
      </trkpt>
      <trkpt lat="51.442631" lon="5.252528">
        <ele>20.957114</ele>
        <time>2024-11-28T18:01:29.916Z</time>
      </trkpt>
      <trkpt lat="51.443061" lon="5.252164">
        <ele>20.732659</ele>
        <time>2024-11-28T18:01:41.813Z</time>
      </trkpt>
      <trkpt lat="51.443135" lon="5.252047">
        <ele>20.684694</ele>
        <time>2024-11-28T18:01:44.367Z</time>
      </trkpt>
      <trkpt lat="51.443280" lon="5.251979">
        <ele>20.614951</ele>
        <time>2024-11-28T18:01:48.087Z</time>
      </trkpt>
      <trkpt lat="51.443709" lon="5.251616">
        <ele>20.467861</ele>
        <time>2024-11-28T18:02:00.018Z</time>
      </trkpt>
      <trkpt lat="51.443924" lon="5.251341">
        <ele>20.459084</ele>
        <time>2024-11-28T18:02:06.896Z</time>
      </trkpt>
      <trkpt lat="51.444120" lon="5.251242">
        <ele>20.452524</ele>
        <time>2024-11-28T18:02:12.054Z</time>
      </trkpt>
      <trkpt lat="51.444371" lon="5.251216">
        <ele>20.444494</ele>
        <time>2024-11-28T18:02:18.424Z</time>
      </trkpt>
      <trkpt lat="51.444549" lon="5.251084">
        <ele>20.438234</ele>
        <time>2024-11-28T18:02:23.454Z</time>
      </trkpt>
      <trkpt lat="51.444641" lon="5.250991">
        <ele>20.434763</ele>
        <time>2024-11-28T18:02:26.293Z</time>
      </trkpt>
      <trkpt lat="51.444926" lon="5.250896">
        <ele>20.425470</ele>
        <time>2024-11-28T18:02:33.921Z</time>
      </trkpt>
      <trkpt lat="51.445004" lon="5.250887">
        <ele>20.422974</ele>
        <time>2024-11-28T18:02:35.974Z</time>
      </trkpt>
      <trkpt lat="51.445287" lon="5.250711">
        <ele>20.444518</ele>
        <time>2024-11-28T18:02:43.903Z</time>
      </trkpt>
      <trkpt lat="51.445375" lon="5.250571">
        <ele>20.483702</ele>
        <time>2024-11-28T18:02:47.122Z</time>
      </trkpt>
      <trkpt lat="51.445496" lon="5.250488">
        <ele>20.525310</ele>
        <time>2024-11-28T18:02:50.543Z</time>
      </trkpt>
      <trkpt lat="51.445659" lon="5.250165">
        <ele>20.607211</ele>
        <time>2024-11-28T18:02:57.219Z</time>
      </trkpt>
      <trkpt lat="51.445786" lon="5.249974">
        <ele>20.662250</ele>
        <time>2024-11-28T18:03:01.554Z</time>
      </trkpt>
      <trkpt lat="51.445815" lon="5.249871">
        <ele>20.684522</ele>
        <time>2024-11-28T18:03:03.319Z</time>
      </trkpt>
      <trkpt lat="51.445647" lon="5.248564">
        <ele>20.947507</ele>
        <time>2024-11-28T18:03:25.757Z</time>
      </trkpt>
      <trkpt lat="51.445637" lon="5.248448">
        <ele>20.970584</ele>
        <time>2024-11-28T18:03:27.819Z</time>
      </trkpt>
      <trkpt lat="51.445662" lon="5.248394">
        <ele>20.983840</ele>
        <time>2024-11-28T18:03:28.959Z</time>
      </trkpt>
      <trkpt lat="51.446363" lon="5.248269">
        <ele>21.499451</ele>
        <time>2024-11-28T18:03:49.265Z</time>
      </trkpt>
      <trkpt lat="51.446649" lon="5.248218">
        <ele>21.710361</ele>
        <time>2024-11-28T18:03:57.821Z</time>
      </trkpt>
      <trkpt lat="51.447563" lon="5.248085">
        <ele>22.260618</ele>
        <time>2024-11-28T18:04:24.416Z</time>
      </trkpt>
      <trkpt lat="51.447976" lon="5.248064">
        <ele>22.099376</ele>
        <time>2024-11-28T18:04:34.699Z</time>
      </trkpt>
      <trkpt lat="51.448180" lon="5.248300">
        <ele>22.001239</ele>
        <time>2024-11-28T18:04:40.813Z</time>
      </trkpt>
      <trkpt lat="51.448417" lon="5.248342">
        <ele>21.908195</ele>
        <time>2024-11-28T18:04:46.564Z</time>
      </trkpt>
      <trkpt lat="51.448608" lon="5.248312">
        <ele>21.833307</ele>
        <time>2024-11-28T18:04:51.145Z</time>
      </trkpt>
      <trkpt lat="51.448906" lon="5.248335">
        <ele>21.716887</ele>
        <time>2024-11-28T18:04:58.242Z</time>
      </trkpt>
      <trkpt lat="51.449097" lon="5.248400">
        <ele>21.640698</ele>
        <time>2024-11-28T18:05:02.865Z</time>
      </trkpt>
      <trkpt lat="51.449133" lon="5.248412">
        <ele>21.626350</ele>
        <time>2024-11-28T18:05:03.735Z</time>
      </trkpt>
      <trkpt lat="51.449827" lon="5.248015">
        <ele>21.331569</ele>
        <time>2024-11-28T18:05:21.306Z</time>
      </trkpt>
      <trkpt lat="51.449895" lon="5.247751">
        <ele>21.260176</ele>
        <time>2024-11-28T18:05:25.628Z</time>
      </trkpt>
      <trkpt lat="51.450145" lon="5.247594">
        <ele>21.152513</ele>
        <time>2024-11-28T18:05:32.217Z</time>
      </trkpt>
      <trkpt lat="51.450803" lon="5.247265">
        <ele>20.883032</ele>
        <time>2024-11-28T18:05:49.535Z</time>
      </trkpt>
      <trkpt lat="51.451402" lon="5.247021">
        <ele>21.081362</ele>
        <time>2024-11-28T18:06:05.673Z</time>
      </trkpt>
      <trkpt lat="51.451534" lon="5.246962">
        <ele>21.125336</ele>
        <time>2024-11-28T18:06:09.314Z</time>
      </trkpt>
      <trkpt lat="51.451681" lon="5.246732">
        <ele>21.191226</ele>
        <time>2024-11-28T18:06:14.832Z</time>
      </trkpt>
      <trkpt lat="51.452481" lon="5.245505">
        <ele>21.457287</ele>
        <time>2024-11-28T18:06:45.520Z</time>
      </trkpt>
      <trkpt lat="51.452681" lon="5.245118">
        <ele>21.457401</ele>
        <time>2024-11-28T18:06:53.469Z</time>
      </trkpt>
      <trkpt lat="51.452848" lon="5.244910">
        <ele>21.457479</ele>
        <time>2024-11-28T18:06:58.873Z</time>
      </trkpt>
      <trkpt lat="51.452933" lon="5.244727">
        <ele>21.457531</ele>
        <time>2024-11-28T18:07:02.529Z</time>
      </trkpt>
      <trkpt lat="51.452921" lon="5.244284">
        <ele>21.457631</ele>
        <time>2024-11-28T18:07:09.534Z</time>
      </trkpt>
      <trkpt lat="51.452819" lon="5.243985">
        <ele>21.457709</ele>
        <time>2024-11-28T18:07:14.819Z</time>
      </trkpt>
      <trkpt lat="51.452847" lon="5.243896">
        <ele>21.457732</ele>
        <time>2024-11-28T18:07:16.416Z</time>
      </trkpt>
      <trkpt lat="51.453193" lon="5.243444">
        <ele>21.399634</ele>
        <time>2024-11-28T18:07:27.342Z</time>
      </trkpt>
      <trkpt lat="51.453162" lon="5.243027">
        <ele>21.293272</ele>
        <time>2024-11-28T18:07:33.589Z</time>
      </trkpt>
      <trkpt lat="51.453235" lon="5.242671">
        <ele>21.198353</ele>
        <time>2024-11-28T18:07:39.237Z</time>
      </trkpt>
      <trkpt lat="51.453214" lon="5.242420">
        <ele>21.134212</ele>
        <time>2024-11-28T18:07:43.190Z</time>
      </trkpt>
      <trkpt lat="51.453154" lon="5.242223">
        <ele>21.078677</ele>
        <time>2024-11-28T18:07:46.627Z</time>
      </trkpt>
      <trkpt lat="51.453159" lon="5.241869">
        <ele>20.988997</ele>
        <time>2024-11-28T18:07:52.096Z</time>
      </trkpt>
      <trkpt lat="51.453122" lon="5.241392">
        <ele>20.867256</ele>
        <time>2024-11-28T18:07:59.421Z</time>
      </trkpt>
      <trkpt lat="51.453070" lon="5.241038">
        <ele>20.775141</ele>
        <time>2024-11-28T18:08:04.922Z</time>
      </trkpt>
      <trkpt lat="51.452732" lon="5.240824">
        <ele>20.647005</ele>
        <time>2024-11-28T18:08:13.844Z</time>
      </trkpt>
      <trkpt lat="51.452346" lon="5.239793">
        <ele>20.402295</ele>
        <time>2024-11-28T18:08:32.253Z</time>
      </trkpt>
      <trkpt lat="51.452410" lon="5.239667">
        <ele>20.369223</ele>
        <time>2024-11-28T18:08:34.724Z</time>
      </trkpt>
      <trkpt lat="51.454084" lon="5.238747">
        <ele>20.092911</ele>
        <time>2024-11-28T18:09:18.791Z</time>
      </trkpt>
      <trkpt lat="51.454084" lon="5.238747">
        <ele>20.092911</ele>
        <time>2024-11-28T18:09:18.798Z</time>
      </trkpt>
      <trkpt lat="51.454092" lon="5.238783">
        <ele>20.091868</ele>
        <time>2024-11-28T18:09:19.816Z</time>
      </trkpt>
      <trkpt lat="51.454156" lon="5.238648">
        <ele>20.087241</ele>
        <time>2024-11-28T18:09:24.337Z</time>
      </trkpt>
      <trkpt lat="51.454173" lon="5.238596">
        <ele>20.085639</ele>
        <time>2024-11-28T18:09:25.901Z</time>
      </trkpt>
      <trkpt lat="51.454180" lon="5.238542">
        <ele>20.084134</ele>
        <time>2024-11-28T18:09:27.372Z</time>
      </trkpt>
      <trkpt lat="51.454160" lon="5.238450">
        <ele>20.081476</ele>
        <time>2024-11-28T18:09:29.969Z</time>
      </trkpt>
      <trkpt lat="51.454139" lon="5.238401">
        <ele>20.079854</ele>
        <time>2024-11-28T18:09:31.554Z</time>
      </trkpt>
      <trkpt lat="51.454063" lon="5.238331">
        <ele>20.076017</ele>
        <time>2024-11-28T18:09:35.301Z</time>
      </trkpt>
      <trkpt lat="51.454023" lon="5.238304">
        <ele>20.074118</ele>
        <time>2024-11-28T18:09:37.156Z</time>
      </trkpt>
      <trkpt lat="51.453976" lon="5.238212">
        <ele>20.070872</ele>
        <time>2024-11-28T18:09:40.327Z</time>
      </trkpt>
      <trkpt lat="51.453964" lon="5.238106">
        <ele>20.067933</ele>
        <time>2024-11-28T18:09:43.199Z</time>
      </trkpt>
      <trkpt lat="51.453940" lon="5.237921">
        <ele>20.062778</ele>
        <time>2024-11-28T18:09:48.235Z</time>
      </trkpt>
      <trkpt lat="51.453867" lon="5.237805">
        <ele>20.074334</ele>
        <time>2024-11-28T18:09:52.628Z</time>
      </trkpt>
      <trkpt lat="51.453835" lon="5.237744">
        <ele>20.085800</ele>
        <time>2024-11-28T18:09:54.753Z</time>
      </trkpt>
      <trkpt lat="51.453783" lon="5.237657">
        <ele>20.103135</ele>
        <time>2024-11-28T18:09:57.965Z</time>
      </trkpt>
      <trkpt lat="51.453738" lon="5.237609">
        <ele>20.115604</ele>
        <time>2024-11-28T18:10:00.276Z</time>
      </trkpt>
      <trkpt lat="51.453704" lon="5.237562">
        <ele>20.125959</ele>
        <time>2024-11-28T18:10:02.196Z</time>
      </trkpt>
      <trkpt lat="51.453613" lon="5.237358">
        <ele>20.162036</ele>
        <time>2024-11-28T18:10:08.882Z</time>
      </trkpt>
      <trkpt lat="51.453583" lon="5.237287">
        <ele>20.174371</ele>
        <time>2024-11-28T18:10:11.168Z</time>
      </trkpt>
      <trkpt lat="51.453508" lon="5.237073">
        <ele>20.209677</ele>
        <time>2024-11-28T18:10:17.712Z</time>
      </trkpt>
      <trkpt lat="51.453460" lon="5.236958">
        <ele>20.229581</ele>
        <time>2024-11-28T18:10:21.401Z</time>
      </trkpt>
      <trkpt lat="51.453434" lon="5.236880">
        <ele>20.242301</ele>
        <time>2024-11-28T18:10:23.758Z</time>
      </trkpt>
      <trkpt lat="51.453325" lon="5.236797">
        <ele>20.270143</ele>
        <time>2024-11-28T18:10:28.918Z</time>
      </trkpt>
      <trkpt lat="51.453138" lon="5.236731">
        <ele>20.314326</ele>
        <time>2024-11-28T18:10:37.107Z</time>
      </trkpt>
      <trkpt lat="51.453096" lon="5.236725">
        <ele>20.324057</ele>
        <time>2024-11-28T18:10:38.910Z</time>
      </trkpt>
      <trkpt lat="51.452998" lon="5.236707">
        <ele>20.346819</ele>
        <time>2024-11-28T18:10:43.128Z</time>
      </trkpt>
      <trkpt lat="51.452868" lon="5.236690">
        <ele>20.376917</ele>
        <time>2024-11-28T18:10:48.707Z</time>
      </trkpt>
      <trkpt lat="51.452703" lon="5.236627">
        <ele>20.416056</ele>
        <time>2024-11-28T18:10:55.959Z</time>
      </trkpt>
      <trkpt lat="51.452547" lon="5.236652">
        <ele>20.452234</ele>
        <time>2024-11-28T18:11:02.664Z</time>
      </trkpt>
      <trkpt lat="51.452355" lon="5.236694">
        <ele>20.493782</ele>
        <time>2024-11-28T18:11:10.952Z</time>
      </trkpt>
      <trkpt lat="51.452239" lon="5.236647">
        <ele>20.517235</ele>
        <time>2024-11-28T18:11:16.069Z</time>
      </trkpt>
      <trkpt lat="51.452101" lon="5.236649">
        <ele>20.544288</ele>
        <time>2024-11-28T18:11:21.970Z</time>
      </trkpt>
      <trkpt lat="51.452061" lon="5.236667">
        <ele>20.552432</ele>
        <time>2024-11-28T18:11:23.747Z</time>
      </trkpt>
      <trkpt lat="51.451967" lon="5.236703">
        <ele>20.571376</ele>
        <time>2024-11-28T18:11:27.880Z</time>
      </trkpt>
      <trkpt lat="51.451894" lon="5.236671">
        <ele>20.586211</ele>
        <time>2024-11-28T18:11:31.117Z</time>
      </trkpt>
      <trkpt lat="51.451773" lon="5.236699">
        <ele>20.610176</ele>
        <time>2024-11-28T18:11:36.345Z</time>
      </trkpt>
      <trkpt lat="51.451629" lon="5.236718">
        <ele>20.638499</ele>
        <time>2024-11-28T18:11:42.525Z</time>
      </trkpt>
      <trkpt lat="51.451581" lon="5.236716">
        <ele>20.647912</ele>
        <time>2024-11-28T18:11:44.579Z</time>
      </trkpt>
      <trkpt lat="51.451448" lon="5.236656">
        <ele>20.674995</ele>
        <time>2024-11-28T18:11:50.487Z</time>
      </trkpt>
      <trkpt lat="51.451388" lon="5.236648">
        <ele>20.686797</ele>
        <time>2024-11-28T18:11:53.061Z</time>
      </trkpt>
      <trkpt lat="51.451252" lon="5.236669">
        <ele>20.713580</ele>
        <time>2024-11-28T18:11:58.905Z</time>
      </trkpt>
      <trkpt lat="51.451162" lon="5.236680">
        <ele>20.731274</ele>
        <time>2024-11-28T18:12:02.765Z</time>
      </trkpt>
      <trkpt lat="51.450993" lon="5.236507">
        <ele>20.770570</ele>
        <time>2024-11-28T18:12:11.339Z</time>
      </trkpt>
      <trkpt lat="51.450837" lon="5.236322">
        <ele>20.808596</ele>
        <time>2024-11-28T18:12:19.635Z</time>
      </trkpt>
      <trkpt lat="51.450822" lon="5.236279">
        <ele>20.814616</ele>
        <time>2024-11-28T18:12:20.947Z</time>
      </trkpt>
      <trkpt lat="51.450815" lon="5.236245">
        <ele>20.818990</ele>
        <time>2024-11-28T18:12:21.901Z</time>
      </trkpt>
      <trkpt lat="51.450742" lon="5.236157">
        <ele>20.847134</ele>
        <time>2024-11-28T18:12:25.806Z</time>
      </trkpt>
      <trkpt lat="51.450658" lon="5.236111">
        <ele>20.885752</ele>
        <time>2024-11-28T18:12:29.602Z</time>
      </trkpt>
      <trkpt lat="51.450526" lon="5.236115">
        <ele>20.943195</ele>
        <time>2024-11-28T18:12:35.248Z</time>
      </trkpt>
      <trkpt lat="51.450352" lon="5.236150">
        <ele>21.019494</ele>
        <time>2024-11-28T18:12:42.748Z</time>
      </trkpt>
      <trkpt lat="51.450298" lon="5.236102">
        <ele>21.046353</ele>
        <time>2024-11-28T18:12:45.388Z</time>
      </trkpt>
      <trkpt lat="51.450270" lon="5.236064">
        <ele>21.062309</ele>
        <time>2024-11-28T18:12:46.957Z</time>
      </trkpt>
      <trkpt lat="51.450185" lon="5.235963">
        <ele>21.108328</ele>
        <time>2024-11-28T18:12:51.480Z</time>
      </trkpt>
      <trkpt lat="51.450124" lon="5.235918">
        <ele>21.137539</ele>
        <time>2024-11-28T18:12:54.352Z</time>
      </trkpt>
      <trkpt lat="51.450076" lon="5.235876">
        <ele>21.161327</ele>
        <time>2024-11-28T18:12:56.691Z</time>
      </trkpt>
      <trkpt lat="51.450012" lon="5.235985">
        <ele>21.201934</ele>
        <time>2024-11-28T18:13:00.681Z</time>
      </trkpt>
      <trkpt lat="51.450012" lon="5.235985">
        <ele>21.201934</ele>
        <time>2024-11-28T18:13:00.704Z</time>
      </trkpt>
      <trkpt lat="51.449986" lon="5.235946">
        <ele>21.217419</ele>
        <time>2024-11-28T18:13:01.712Z</time>
      </trkpt>
      <trkpt lat="51.449544" lon="5.235193">
        <ele>21.497905</ele>
        <time>2024-11-28T18:13:19.623Z</time>
      </trkpt>
      <trkpt lat="51.448844" lon="5.234002">
        <ele>21.842161</ele>
        <time>2024-11-28T18:13:47.618Z</time>
      </trkpt>
      <trkpt lat="51.449564" lon="5.232849">
        <ele>22.151397</ele>
        <time>2024-11-28T18:14:14.164Z</time>
      </trkpt>
      <trkpt lat="51.449704" lon="5.232755">
        <ele>22.150469</ele>
        <time>2024-11-28T18:14:18.026Z</time>
      </trkpt>
      <trkpt lat="51.450171" lon="5.232431">
        <ele>22.121652</ele>
        <time>2024-11-28T18:14:30.995Z</time>
      </trkpt>
      <trkpt lat="51.450470" lon="5.232147">
        <ele>22.101972</ele>
        <time>2024-11-28T18:14:39.977Z</time>
      </trkpt>
      <trkpt lat="51.450944" lon="5.231245">
        <ele>22.060326</ele>
        <time>2024-11-28T18:14:58.630Z</time>
      </trkpt>
      <trkpt lat="51.450573" lon="5.230950">
        <ele>21.832177</ele>
        <time>2024-11-28T18:15:05.016Z</time>
      </trkpt>
      <trkpt lat="51.450586" lon="5.230871">
        <ele>21.798404</ele>
        <time>2024-11-28T18:15:05.801Z</time>
      </trkpt>
      <trkpt lat="51.451111" lon="5.226574">
        <ele>19.969232</ele>
        <time>2024-11-28T18:15:45.696Z</time>
      </trkpt>
      <trkpt lat="51.451529" lon="5.225276">
        <ele>19.635579</ele>
        <time>2024-11-28T18:15:59.461Z</time>
      </trkpt>
      <trkpt lat="51.451859" lon="5.224441">
        <ele>19.623847</ele>
        <time>2024-11-28T18:16:09.890Z</time>
      </trkpt>
      <trkpt lat="51.452040" lon="5.224630">
        <ele>19.619735</ele>
        <time>2024-11-28T18:16:13.551Z</time>
      </trkpt>
      <trkpt lat="51.452476" lon="5.224629">
        <ele>19.611434</ele>
        <time>2024-11-28T18:16:20.898Z</time>
      </trkpt>
      <trkpt lat="51.452560" lon="5.224650">
        <ele>19.609815</ele>
        <time>2024-11-28T18:16:22.329Z</time>
      </trkpt>
      <trkpt lat="51.452630" lon="5.224730">
        <ele>19.602314</ele>
        <time>2024-11-28T18:16:23.775Z</time>
      </trkpt>
      <trkpt lat="51.452700" lon="5.224880">
        <ele>19.590418</ele>
        <time>2024-11-28T18:16:25.747Z</time>
      </trkpt>
      <trkpt lat="51.453080" lon="5.226030">
        <ele>19.507787</ele>
        <time>2024-11-28T18:16:38.926Z</time>
      </trkpt>
      <trkpt lat="51.453310" lon="5.226500">
        <ele>19.469851</ele>
        <time>2024-11-28T18:16:44.618Z</time>
      </trkpt>
      <trkpt lat="51.453770" lon="5.227240">
        <ele>19.430983</ele>
        <time>2024-11-28T18:16:54.734Z</time>
      </trkpt>
      <trkpt lat="51.457752" lon="5.235458">
        <ele>19.555226</ele>
        <time>2024-11-28T18:19:40.567Z</time>
      </trkpt>
      <trkpt lat="51.457851" lon="5.235652">
        <ele>19.557131</ele>
        <time>2024-11-28T18:19:44.546Z</time>
      </trkpt>
      <trkpt lat="51.460633" lon="5.241465">
        <ele>19.339382</ele>
        <time>2024-11-28T18:21:39.832Z</time>
      </trkpt>
      <trkpt lat="51.460533" lon="5.241698">
        <ele>19.361657</ele>
        <time>2024-11-28T18:21:42.707Z</time>
      </trkpt>
      <trkpt lat="51.460163" lon="5.241284">
        <ele>19.418652</ele>
        <time>2024-11-28T18:21:49.829Z</time>
      </trkpt>
      <trkpt lat="51.459780" lon="5.240855">
        <ele>19.477669</ele>
        <time>2024-11-28T18:21:57.474Z</time>
      </trkpt>
      <trkpt lat="51.459404" lon="5.240434">
        <ele>19.610939</ele>
        <time>2024-11-28T18:22:05.340Z</time>
      </trkpt>
      <trkpt lat="51.459371" lon="5.240509">
        <ele>19.629045</ele>
        <time>2024-11-28T18:22:06.387Z</time>
      </trkpt>
      <trkpt lat="51.458610" lon="5.241830">
        <ele>19.983827</ele>
        <time>2024-11-28T18:22:26.179Z</time>
      </trkpt>
      <trkpt lat="51.457777" lon="5.243359">
        <ele>20.120671</ele>
        <time>2024-11-28T18:22:46.895Z</time>
      </trkpt>
      <trkpt lat="51.458476" lon="5.244124">
        <ele>20.165666</ele>
        <time>2024-11-28T18:23:08.618Z</time>
      </trkpt>
      <trkpt lat="51.458651" lon="5.244466">
        <ele>20.156585</ele>
        <time>2024-11-28T18:23:15.735Z</time>
      </trkpt>
      <trkpt lat="51.459136" lon="5.244985">
        <ele>20.137388</ele>
        <time>2024-11-28T18:23:30.590Z</time>
      </trkpt>
      <trkpt lat="51.459070" lon="5.245200">
        <ele>20.132469</ele>
        <time>2024-11-28T18:23:34.355Z</time>
      </trkpt>
      <trkpt lat="51.459004" lon="5.245416">
        <ele>20.127533</ele>
        <time>2024-11-28T18:23:38.127Z</time>
      </trkpt>
      <trkpt lat="51.458377" lon="5.247147">
        <ele>20.116544</ele>
        <time>2024-11-28T18:24:09.291Z</time>
      </trkpt>
      <trkpt lat="51.458403" lon="5.249841">
        <ele>20.150356</ele>
        <time>2024-11-28T18:24:52.781Z</time>
      </trkpt>
      <trkpt lat="51.457896" lon="5.249775">
        <ele>20.170154</ele>
        <time>2024-11-28T18:25:05.967Z</time>
      </trkpt>
      <trkpt lat="51.456727" lon="5.249490">
        <ele>20.146852</ele>
        <time>2024-11-28T18:25:35.926Z</time>
      </trkpt>
      <trkpt lat="51.456482" lon="5.249441">
        <ele>20.119896</ele>
        <time>2024-11-28T18:25:42.156Z</time>
      </trkpt>
      <trkpt lat="51.456482" lon="5.249441">
        <ele>20.119896</ele>
        <time>2024-11-28T18:25:42.161Z</time>
      </trkpt>
      <trkpt lat="51.456469" lon="5.249602">
        <ele>20.108852</ele>
        <time>2024-11-28T18:25:46.487Z</time>
      </trkpt>
      <trkpt lat="51.456466" lon="5.249753">
        <ele>20.098574</ele>
        <time>2024-11-28T18:25:50.513Z</time>
      </trkpt>
      <trkpt lat="51.456476" lon="5.250148">
        <ele>20.071681</ele>
        <time>2024-11-28T18:26:01.048Z</time>
      </trkpt>
      <trkpt lat="51.456483" lon="5.250274">
        <ele>20.063075</ele>
        <time>2024-11-28T18:26:04.419Z</time>
      </trkpt>
      <trkpt lat="51.456495" lon="5.250426">
        <ele>20.052652</ele>
        <time>2024-11-28T18:26:08.503Z</time>
      </trkpt>
      <trkpt lat="51.456509" lon="5.250568">
        <ele>20.042871</ele>
        <time>2024-11-28T18:26:12.334Z</time>
      </trkpt>
      <trkpt lat="51.456511" lon="5.250737">
        <ele>20.031372</ele>
        <time>2024-11-28T18:26:16.839Z</time>
      </trkpt>
      <trkpt lat="51.456519" lon="5.250748">
        <ele>20.030222</ele>
        <time>2024-11-28T18:26:17.288Z</time>
      </trkpt>
      <trkpt lat="51.456551" lon="5.250782">
        <ele>20.026032</ele>
        <time>2024-11-28T18:26:18.931Z</time>
      </trkpt>
      <trkpt lat="51.456589" lon="5.250829">
        <ele>20.020794</ele>
        <time>2024-11-28T18:26:20.982Z</time>
      </trkpt>
      <trkpt lat="51.456638" lon="5.250925">
        <ele>20.012352</ele>
        <time>2024-11-28T18:26:24.288Z</time>
      </trkpt>
      <trkpt lat="51.456730" lon="5.251114">
        <ele>19.995707</ele>
        <time>2024-11-28T18:26:30.681Z</time>
      </trkpt>
      <trkpt lat="51.456737" lon="5.251275">
        <ele>19.984075</ele>
        <time>2024-11-28T18:26:34.982Z</time>
      </trkpt>
      <trkpt lat="51.456846" lon="5.251703">
        <ele>19.950753</ele>
        <time>2024-11-28T18:26:47.303Z</time>
      </trkpt>
      <trkpt lat="51.456901" lon="5.252052">
        <ele>19.924809</ele>
        <time>2024-11-28T18:26:56.895Z</time>
      </trkpt>
      <trkpt lat="51.456912" lon="5.252108">
        <ele>19.920577</ele>
        <time>2024-11-28T18:26:58.461Z</time>
      </trkpt>
      <trkpt lat="51.456943" lon="5.252358">
        <ele>19.902207</ele>
        <time>2024-11-28T18:27:05.253Z</time>
      </trkpt>
      <trkpt lat="51.456964" lon="5.252503">
        <ele>19.891478</ele>
        <time>2024-11-28T18:27:09.220Z</time>
      </trkpt>
      <trkpt lat="51.456983" lon="5.252719">
        <ele>19.875757</ele>
        <time>2024-11-28T18:27:15.033Z</time>
      </trkpt>
      <trkpt lat="51.457014" lon="5.252864">
        <ele>19.864709</ele>
        <time>2024-11-28T18:27:19.118Z</time>
      </trkpt>
      <trkpt lat="51.457046" lon="5.253028">
        <ele>19.852323</ele>
        <time>2024-11-28T18:27:23.697Z</time>
      </trkpt>
      <trkpt lat="51.457057" lon="5.253285">
        <ele>19.833758</ele>
        <time>2024-11-28T18:27:30.563Z</time>
      </trkpt>
      <trkpt lat="51.457064" lon="5.253379">
        <ele>19.826935</ele>
        <time>2024-11-28T18:27:33.086Z</time>
      </trkpt>
      <trkpt lat="51.457083" lon="5.253523">
        <ele>19.816327</ele>
        <time>2024-11-28T18:27:37.008Z</time>
      </trkpt>
      <trkpt lat="51.457110" lon="5.253768">
        <ele>19.798396</ele>
        <time>2024-11-28T18:27:43.638Z</time>
      </trkpt>
      <trkpt lat="51.457209" lon="5.253851">
        <ele>19.789921</ele>
        <time>2024-11-28T18:27:48.414Z</time>
      </trkpt>
      <trkpt lat="51.457320" lon="5.253832">
        <ele>19.784115</ele>
        <time>2024-11-28T18:27:53.189Z</time>
      </trkpt>
      <trkpt lat="51.457445" lon="5.253796">
        <ele>19.777509</ele>
        <time>2024-11-28T18:27:58.620Z</time>
      </trkpt>
      <trkpt lat="51.457516" lon="5.253767">
        <ele>19.773699</ele>
        <time>2024-11-28T18:28:01.753Z</time>
      </trkpt>
      <trkpt lat="51.457582" lon="5.253943">
        <ele>19.767041</ele>
        <time>2024-11-28T18:28:07.227Z</time>
      </trkpt>
      <trkpt lat="51.457741" lon="5.253789">
        <ele>19.757382</ele>
        <time>2024-11-28T18:28:15.169Z</time>
      </trkpt>
      <trkpt lat="51.457876" lon="5.254499">
        <ele>19.733325</ele>
        <time>2024-11-28T18:28:34.952Z</time>
      </trkpt>
      <trkpt lat="51.458010" lon="5.255210">
        <ele>19.709251</ele>
        <time>2024-11-28T18:28:54.745Z</time>
      </trkpt>
      <trkpt lat="51.458010" lon="5.255210">
        <ele>19.709251</ele>
        <time>2024-11-28T18:28:54.745Z</time>
      </trkpt>
      <trkpt lat="51.458529" lon="5.257713">
        <ele>19.830282</ele>
        <time>2024-11-28T18:29:21.313Z</time>
      </trkpt>
      <trkpt lat="51.458560" lon="5.257840">
        <ele>19.837836</ele>
        <time>2024-11-28T18:29:22.763Z</time>
      </trkpt>
      <trkpt lat="51.457739" lon="5.258436">
        <ele>20.233988</ele>
        <time>2024-11-28T18:29:38.207Z</time>
      </trkpt>
      <trkpt lat="51.457700" lon="5.258570">
        <ele>20.286767</ele>
        <time>2024-11-28T18:29:39.952Z</time>
      </trkpt>
      <trkpt lat="51.456280" lon="5.260830">
        <ele>21.200020</ele>
        <time>2024-11-28T18:30:18.107Z</time>
      </trkpt>
      <trkpt lat="51.456218" lon="5.260896">
        <ele>21.224386</ele>
        <time>2024-11-28T18:30:19.365Z</time>
      </trkpt>
      <trkpt lat="51.456157" lon="5.260962">
        <ele>21.248480</ele>
        <time>2024-11-28T18:30:20.610Z</time>
      </trkpt>
      <trkpt lat="51.455307" lon="5.261622">
        <ele>21.420121</ele>
        <time>2024-11-28T18:30:44.316Z</time>
      </trkpt>
      <trkpt lat="51.454890" lon="5.261836">
        <ele>21.312673</ele>
        <time>2024-11-28T18:30:55.003Z</time>
      </trkpt>
      <trkpt lat="51.454780" lon="5.261955">
        <ele>21.280115</ele>
        <time>2024-11-28T18:30:58.255Z</time>
      </trkpt>
      <trkpt lat="51.454825" lon="5.262087">
        <ele>21.257104</ele>
        <time>2024-11-28T18:30:59.776Z</time>
      </trkpt>
      <trkpt lat="51.455061" lon="5.262492">
        <ele>21.172305</ele>
        <time>2024-11-28T18:31:05.465Z</time>
      </trkpt>
      <trkpt lat="51.456391" lon="5.263958">
        <ele>20.821898</ele>
        <time>2024-11-28T18:31:32.558Z</time>
      </trkpt>
      <trkpt lat="51.456667" lon="5.264113">
        <ele>20.762651</ele>
        <time>2024-11-28T18:31:37.426Z</time>
      </trkpt>
      <trkpt lat="51.457714" lon="5.264464">
        <ele>20.543871</ele>
        <time>2024-11-28T18:31:54.939Z</time>
      </trkpt>
      <trkpt lat="51.458070" lon="5.264697">
        <ele>20.464710</ele>
        <time>2024-11-28T18:32:01.194Z</time>
      </trkpt>
      <trkpt lat="51.458109" lon="5.264766">
        <ele>20.452758</ele>
        <time>2024-11-28T18:32:02.148Z</time>
      </trkpt>
      <trkpt lat="51.458155" lon="5.264848">
        <ele>20.438603</ele>
        <time>2024-11-28T18:32:03.280Z</time>
      </trkpt>
      <trkpt lat="51.458179" lon="5.264882">
        <ele>20.432011</ele>
        <time>2024-11-28T18:32:04.087Z</time>
      </trkpt>
      <trkpt lat="51.458372" lon="5.265269">
        <ele>20.368417</ele>
        <time>2024-11-28T18:32:09.235Z</time>
      </trkpt>
      <trkpt lat="51.458487" lon="5.265448">
        <ele>20.335431</ele>
        <time>2024-11-28T18:32:11.946Z</time>
      </trkpt>
      <trkpt lat="51.458519" lon="5.265512">
        <ele>20.324904</ele>
        <time>2024-11-28T18:32:12.827Z</time>
      </trkpt>
      <trkpt lat="51.458553" lon="5.265580">
        <ele>20.313718</ele>
        <time>2024-11-28T18:32:14.212Z</time>
      </trkpt>
      <trkpt lat="51.458617" lon="5.265674">
        <ele>20.314849</ele>
        <time>2024-11-28T18:32:15.702Z</time>
      </trkpt>
      <trkpt lat="51.458818" lon="5.266084">
        <ele>20.429237</ele>
        <time>2024-11-28T18:32:21.475Z</time>
      </trkpt>
      <trkpt lat="51.459126" lon="5.268067">
        <ele>20.877336</ele>
        <time>2024-11-28T18:32:56.296Z</time>
      </trkpt>
      <trkpt lat="51.459137" lon="5.268985">
        <ele>20.994674</ele>
        <time>2024-11-28T18:33:11.755Z</time>
      </trkpt>
      <trkpt lat="51.459159" lon="5.269128">
        <ele>21.007983</ele>
        <time>2024-11-28T18:33:14.199Z</time>
      </trkpt>
      <trkpt lat="51.459183" lon="5.269284">
        <ele>21.022502</ele>
        <time>2024-11-28T18:33:16.836Z</time>
      </trkpt>
      <trkpt lat="51.459541" lon="5.272201">
        <ele>21.103073</ele>
        <time>2024-11-28T18:34:03.933Z</time>
      </trkpt>
      <trkpt lat="51.459059" lon="5.272457">
        <ele>21.030167</ele>
        <time>2024-11-28T18:34:16.757Z</time>
      </trkpt>
      <trkpt lat="51.459144" lon="5.273199">
        <ele>20.962666</ele>
        <time>2024-11-28T18:34:28.474Z</time>
      </trkpt>
      <trkpt lat="51.459413" lon="5.273356">
        <ele>20.914116</ele>
        <time>2024-11-28T18:34:32.696Z</time>
      </trkpt>
      <trkpt lat="51.459686" lon="5.273477">
        <ele>20.855412</ele>
        <time>2024-11-28T18:34:39.638Z</time>
      </trkpt>
      <trkpt lat="51.460267" lon="5.273911">
        <ele>20.722582</ele>
        <time>2024-11-28T18:34:55.339Z</time>
      </trkpt>
      <trkpt lat="51.460864" lon="5.274279">
        <ele>20.590028</ele>
        <time>2024-11-28T18:35:11.424Z</time>
      </trkpt>
      <trkpt lat="51.460882" lon="5.274375">
        <ele>20.577081</ele>
        <time>2024-11-28T18:35:12.681Z</time>
      </trkpt>
      <trkpt lat="51.460354" lon="5.274589">
        <ele>20.589268</ele>
        <time>2024-11-28T18:35:21.265Z</time>
      </trkpt>
      <trkpt lat="51.460218" lon="5.274689">
        <ele>20.596526</ele>
        <time>2024-11-28T18:35:23.669Z</time>
      </trkpt>
      <trkpt lat="51.460091" lon="5.274839">
        <ele>20.604177</ele>
        <time>2024-11-28T18:35:26.211Z</time>
      </trkpt>
      <trkpt lat="51.460125" lon="5.274933">
        <ele>20.607462</ele>
        <time>2024-11-28T18:35:27.990Z</time>
      </trkpt>
      <trkpt lat="51.460257" lon="5.275129">
        <ele>20.616187</ele>
        <time>2024-11-28T18:35:32.753Z</time>
      </trkpt>
      <trkpt lat="51.459964" lon="5.275711">
        <ele>20.638806</ele>
        <time>2024-11-28T18:35:44.882Z</time>
      </trkpt>
      <trkpt lat="51.459306" lon="5.276756">
        <ele>20.592079</ele>
        <time>2024-11-28T18:36:08.035Z</time>
      </trkpt>
      <trkpt lat="51.458533" lon="5.277896">
        <ele>20.491985</ele>
        <time>2024-11-28T18:36:34.375Z</time>
      </trkpt>
      <trkpt lat="51.458587" lon="5.278619">
        <ele>20.489546</ele>
        <time>2024-11-28T18:36:46.007Z</time>
      </trkpt>
      <trkpt lat="51.458738" lon="5.278887">
        <ele>20.494964</ele>
        <time>2024-11-28T18:36:51.822Z</time>
      </trkpt>
      <trkpt lat="51.459174" lon="5.279617">
        <ele>20.510126</ele>
        <time>2024-11-28T18:37:08.123Z</time>
      </trkpt>
      <trkpt lat="51.458941" lon="5.280010">
        <ele>20.518259</ele>
        <time>2024-11-28T18:37:16.842Z</time>
      </trkpt>
      <trkpt lat="51.458211" lon="5.281238">
        <ele>20.345423</ele>
        <time>2024-11-28T18:37:43.281Z</time>
      </trkpt>
      <trkpt lat="51.457322" lon="5.282692">
        <ele>20.111931</ele>
        <time>2024-11-28T18:38:14.640Z</time>
      </trkpt>
      <trkpt lat="51.458335" lon="5.284332">
        <ele>20.075257</ele>
        <time>2024-11-28T18:38:51.363Z</time>
      </trkpt>
      <trkpt lat="51.458813" lon="5.285106">
        <ele>20.114114</ele>
        <time>2024-11-28T18:39:09.092Z</time>
      </trkpt>
      <trkpt lat="51.459981" lon="5.286890">
        <ele>20.211755</ele>
        <time>2024-11-28T18:39:50.334Z</time>
      </trkpt>
      <trkpt lat="51.460329" lon="5.287420">
        <ele>20.225926</ele>
        <time>2024-11-28T18:40:02.569Z</time>
      </trkpt>
      <trkpt lat="51.459507" lon="5.288877">
        <ele>20.225220</ele>
        <time>2024-11-28T18:40:33.880Z</time>
      </trkpt>
      <trkpt lat="51.457968" lon="5.286556">
        <ele>20.025669</ele>
        <time>2024-11-28T18:41:26.929Z</time>
      </trkpt>
      <trkpt lat="51.457456" lon="5.285784">
        <ele>19.955127</ele>
        <time>2024-11-28T18:41:44.564Z</time>
      </trkpt>
      <trkpt lat="51.456421" lon="5.284222">
        <ele>19.945535</ele>
        <time>2024-11-28T18:42:20.574Z</time>
      </trkpt>
      <trkpt lat="51.455576" lon="5.282948">
        <ele>20.062353</ele>
        <time>2024-11-28T18:42:50.515Z</time>
      </trkpt>
      <trkpt lat="51.455496" lon="5.282839">
        <ele>20.090745</ele>
        <time>2024-11-28T18:42:53.288Z</time>
      </trkpt>
      <trkpt lat="51.455416" lon="5.282729">
        <ele>20.119246</ele>
        <time>2024-11-28T18:42:56.067Z</time>
      </trkpt>
      <trkpt lat="51.454087" lon="5.284942">
        <ele>20.604154</ele>
        <time>2024-11-28T18:43:28.183Z</time>
      </trkpt>
      <trkpt lat="51.454379" lon="5.285491">
        <ele>20.702068</ele>
        <time>2024-11-28T18:43:40.010Z</time>
      </trkpt>
      <trkpt lat="51.455212" lon="5.286736">
        <ele>20.880520</ele>
        <time>2024-11-28T18:44:09.115Z</time>
      </trkpt>
      <trkpt lat="51.457152" lon="5.289633">
        <ele>21.134819</ele>
        <time>2024-11-28T18:45:16.862Z</time>
      </trkpt>
      <trkpt lat="51.456814" lon="5.290469">
        <ele>21.239309</ele>
        <time>2024-11-28T18:45:33.569Z</time>
      </trkpt>
      <trkpt lat="51.456814" lon="5.290469">
        <ele>21.239309</ele>
        <time>2024-11-28T18:45:33.579Z</time>
      </trkpt>
      <trkpt lat="51.456915" lon="5.290574">
        <ele>21.276438</ele>
        <time>2024-11-28T18:45:38.725Z</time>
      </trkpt>
      <trkpt lat="51.456899" lon="5.290692">
        <ele>21.299655</ele>
        <time>2024-11-28T18:45:41.944Z</time>
      </trkpt>
      <trkpt lat="51.456890" lon="5.290729">
        <ele>21.307291</ele>
        <time>2024-11-28T18:45:43.003Z</time>
      </trkpt>
      <trkpt lat="51.456887" lon="5.290815">
        <ele>21.323850</ele>
        <time>2024-11-28T18:45:45.298Z</time>
      </trkpt>
      <trkpt lat="51.456896" lon="5.291054">
        <ele>21.369881</ele>
        <time>2024-11-28T18:45:51.679Z</time>
      </trkpt>
      <trkpt lat="51.456931" lon="5.291154">
        <ele>21.391932</ele>
        <time>2024-11-28T18:45:54.735Z</time>
      </trkpt>
      <trkpt lat="51.457050" lon="5.291244">
        <ele>21.432520</ele>
        <time>2024-11-28T18:46:00.362Z</time>
      </trkpt>
      <trkpt lat="51.457147" lon="5.291206">
        <ele>21.463327</ele>
        <time>2024-11-28T18:46:04.632Z</time>
      </trkpt>
      <trkpt lat="51.457152" lon="5.291178">
        <ele>21.468926</ele>
        <time>2024-11-28T18:46:05.408Z</time>
      </trkpt>
      <trkpt lat="51.457196" lon="5.291088">
        <ele>21.490919</ele>
        <time>2024-11-28T18:46:08.457Z</time>
      </trkpt>
      <trkpt lat="51.457229" lon="5.291090">
        <ele>21.501108</ele>
        <time>2024-11-28T18:46:09.868Z</time>
      </trkpt>
      <trkpt lat="51.457355" lon="5.291235">
        <ele>21.548945</ele>
        <time>2024-11-28T18:46:16.500Z</time>
      </trkpt>
      <trkpt lat="51.457361" lon="5.291324">
        <ele>21.566154</ele>
        <time>2024-11-28T18:46:18.885Z</time>
      </trkpt>
      <trkpt lat="51.457366" lon="5.291359">
        <ele>21.573058</ele>
        <time>2024-11-28T18:46:19.842Z</time>
      </trkpt>
      <trkpt lat="51.457317" lon="5.291477">
        <ele>21.600319</ele>
        <time>2024-11-28T18:46:23.620Z</time>
      </trkpt>
      <trkpt lat="51.457236" lon="5.291550">
        <ele>21.628981</ele>
        <time>2024-11-28T18:46:27.594Z</time>
      </trkpt>
      <trkpt lat="51.457202" lon="5.291662">
        <ele>21.652932</ele>
        <time>2024-11-28T18:46:30.913Z</time>
      </trkpt>
      <trkpt lat="51.457209" lon="5.291848">
        <ele>21.688756</ele>
        <time>2024-11-28T18:46:35.880Z</time>
      </trkpt>
      <trkpt lat="51.457211" lon="5.291847">
        <ele>21.689402</ele>
        <time>2024-11-28T18:46:35.969Z</time>
      </trkpt>
      <trkpt lat="51.457225" lon="5.291901">
        <ele>21.700646</ele>
        <time>2024-11-28T18:46:37.528Z</time>
      </trkpt>
      <trkpt lat="51.457225" lon="5.291901">
        <ele>21.700646</ele>
        <time>2024-11-28T18:46:37.538Z</time>
      </trkpt>
      <trkpt lat="51.457287" lon="5.291947">
        <ele>21.721721</ele>
        <time>2024-11-28T18:46:39.288Z</time>
      </trkpt>
      <trkpt lat="51.457392" lon="5.291912">
        <ele>21.754808</ele>
        <time>2024-11-28T18:46:42.109Z</time>
      </trkpt>
      <trkpt lat="51.457436" lon="5.291863">
        <ele>21.762764</ele>
        <time>2024-11-28T18:46:43.446Z</time>
      </trkpt>
      <trkpt lat="51.457484" lon="5.291871">
        <ele>21.754036</ele>
        <time>2024-11-28T18:46:44.691Z</time>
      </trkpt>
      <trkpt lat="51.457552" lon="5.291944">
        <ele>21.739240</ele>
        <time>2024-11-28T18:46:46.821Z</time>
      </trkpt>
      <trkpt lat="51.457678" lon="5.291933">
        <ele>21.716418</ele>
        <time>2024-11-28T18:46:50.036Z</time>
      </trkpt>
      <trkpt lat="51.457758" lon="5.291890">
        <ele>21.701160</ele>
        <time>2024-11-28T18:46:52.158Z</time>
      </trkpt>
      <trkpt lat="51.457810" lon="5.291818">
        <ele>21.688739</ele>
        <time>2024-11-28T18:46:53.926Z</time>
      </trkpt>
      <trkpt lat="51.457873" lon="5.291810">
        <ele>21.677309</ele>
        <time>2024-11-28T18:46:55.508Z</time>
      </trkpt>
      <trkpt lat="51.457965" lon="5.291954">
        <ele>21.654068</ele>
        <time>2024-11-28T18:46:58.755Z</time>
      </trkpt>
      <trkpt lat="51.458041" lon="5.291922">
        <ele>21.639857</ele>
        <time>2024-11-28T18:47:00.699Z</time>
      </trkpt>
      <trkpt lat="51.458081" lon="5.291954">
        <ele>21.631774</ele>
        <time>2024-11-28T18:47:01.860Z</time>
      </trkpt>
      <trkpt lat="51.458094" lon="5.292231">
        <ele>21.600470</ele>
        <time>2024-11-28T18:47:06.181Z</time>
      </trkpt>
      <trkpt lat="51.458208" lon="5.292370">
        <ele>21.574577</ele>
        <time>2024-11-28T18:47:09.722Z</time>
      </trkpt>
      <trkpt lat="51.458176" lon="5.292550">
        <ele>21.553484</ele>
        <time>2024-11-28T18:47:12.599Z</time>
      </trkpt>
      <trkpt lat="51.458116" lon="5.292622">
        <ele>21.539934</ele>
        <time>2024-11-28T18:47:14.461Z</time>
      </trkpt>
      <trkpt lat="51.458111" lon="5.292681">
        <ele>21.533224</ele>
        <time>2024-11-28T18:47:15.375Z</time>
      </trkpt>
      <trkpt lat="51.458152" lon="5.292759">
        <ele>21.521725</ele>
        <time>2024-11-28T18:47:16.952Z</time>
      </trkpt>
      <trkpt lat="51.458261" lon="5.292786">
        <ele>21.501778</ele>
        <time>2024-11-28T18:47:19.660Z</time>
      </trkpt>
      <trkpt lat="51.458361" lon="5.292974">
        <ele>21.473922</ele>
        <time>2024-11-28T18:47:23.436Z</time>
      </trkpt>
      <trkpt lat="51.458404" lon="5.292977">
        <ele>21.466138</ele>
        <time>2024-11-28T18:47:24.488Z</time>
      </trkpt>
      <trkpt lat="51.458693" lon="5.292631">
        <ele>21.326619</ele>
        <time>2024-11-28T18:47:33.283Z</time>
      </trkpt>
      <trkpt lat="51.458922" lon="5.292312">
        <ele>21.169135</ele>
        <time>2024-11-28T18:47:40.669Z</time>
      </trkpt>
      <trkpt lat="51.459106" lon="5.292591">
        <ele>21.037668</ele>
        <time>2024-11-28T18:47:46.816Z</time>
      </trkpt>
      <trkpt lat="51.459212" lon="5.292796">
        <ele>20.951462</ele>
        <time>2024-11-28T18:47:50.834Z</time>
      </trkpt>
      <trkpt lat="51.460734" lon="5.295079">
        <ele>20.074509</ele>
        <time>2024-11-28T18:48:41.253Z</time>
      </trkpt>
      <trkpt lat="51.461077" lon="5.295595">
        <ele>19.908927</ele>
        <time>2024-11-28T18:48:53.069Z</time>
      </trkpt>
      <trkpt lat="51.461267" lon="5.295862">
        <ele>19.907507</ele>
        <time>2024-11-28T18:48:59.531Z</time>
      </trkpt>
      <trkpt lat="51.462084" lon="5.297084">
        <ele>20.163816</ele>
        <time>2024-11-28T18:49:29.500Z</time>
      </trkpt>
      <trkpt lat="51.462455" lon="5.297639">
        <ele>20.280214</ele>
        <time>2024-11-28T18:49:42.939Z</time>
      </trkpt>
      <trkpt lat="51.462958" lon="5.297028">
        <ele>20.292892</ele>
        <time>2024-11-28T18:49:59.234Z</time>
      </trkpt>
      <trkpt lat="51.463472" lon="5.296404">
        <ele>20.300443</ele>
        <time>2024-11-28T18:50:15.572Z</time>
      </trkpt>
      <trkpt lat="51.463553" lon="5.296586">
        <ele>20.302076</ele>
        <time>2024-11-28T18:50:19.092Z</time>
      </trkpt>
      <trkpt lat="51.464011" lon="5.297607">
        <ele>20.289208</ele>
        <time>2024-11-28T18:50:38.850Z</time>
      </trkpt>
      <trkpt lat="51.464243" lon="5.298229">
        <ele>20.267979</ele>
        <time>2024-11-28T18:50:50.222Z</time>
      </trkpt>
      <trkpt lat="51.464422" lon="5.298882">
        <ele>20.247087</ele>
        <time>2024-11-28T18:51:01.418Z</time>
      </trkpt>
      <trkpt lat="51.464445" lon="5.299175">
        <ele>20.238440</ele>
        <time>2024-11-28T18:51:06.077Z</time>
      </trkpt>
      <trkpt lat="51.464414" lon="5.299458">
        <ele>20.230025</ele>
        <time>2024-11-28T18:51:10.645Z</time>
      </trkpt>
      <trkpt lat="51.464456" lon="5.299674">
        <ele>20.223399</ele>
        <time>2024-11-28T18:51:14.270Z</time>
      </trkpt>
      <trkpt lat="51.464617" lon="5.300093">
        <ele>20.273022</ele>
        <time>2024-11-28T18:51:22.237Z</time>
      </trkpt>
      <trkpt lat="51.464948" lon="5.300718">
        <ele>20.364380</ele>
        <time>2024-11-28T18:51:35.604Z</time>
      </trkpt>
      <trkpt lat="51.465017" lon="5.300900">
        <ele>20.388107</ele>
        <time>2024-11-28T18:51:39.079Z</time>
      </trkpt>
      <trkpt lat="51.465026" lon="5.301113">
        <ele>20.411883</ele>
        <time>2024-11-28T18:51:42.590Z</time>
      </trkpt>
      <trkpt lat="51.465295" lon="5.301538">
        <ele>20.479356</ele>
        <time>2024-11-28T18:51:52.661Z</time>
      </trkpt>
      <trkpt lat="51.465410" lon="5.301871">
        <ele>20.521759</ele>
        <time>2024-11-28T18:51:58.933Z</time>
      </trkpt>
      <trkpt lat="51.465560" lon="5.301960">
        <ele>20.544546</ele>
        <time>2024-11-28T18:52:03.104Z</time>
      </trkpt>
      <trkpt lat="51.465889" lon="5.302471">
        <ele>20.553330</ele>
        <time>2024-11-28T18:52:14.821Z</time>
      </trkpt>
      <trkpt lat="51.465845" lon="5.302630">
        <ele>20.555410</ele>
        <time>2024-11-28T18:52:17.566Z</time>
      </trkpt>
      <trkpt lat="51.465834" lon="5.302728">
        <ele>20.556600</ele>
        <time>2024-11-28T18:52:19.135Z</time>
      </trkpt>
      <trkpt lat="51.465144" lon="5.303877">
        <ele>20.575677</ele>
        <time>2024-11-28T18:52:44.227Z</time>
      </trkpt>
      <trkpt lat="51.466186" lon="5.305347">
        <ele>20.558682</ele>
        <time>2024-11-28T18:53:19.309Z</time>
      </trkpt>
      <trkpt lat="51.465513" lon="5.306923">
        <ele>20.539879</ele>
        <time>2024-11-28T18:53:49.923Z</time>
      </trkpt>
      <trkpt lat="51.465260" lon="5.307380">
        <ele>20.533856</ele>
        <time>2024-11-28T18:53:59.655Z</time>
      </trkpt>
      <trkpt lat="51.465189" lon="5.307386">
        <ele>20.532731</ele>
        <time>2024-11-28T18:54:01.465Z</time>
      </trkpt>
      <trkpt lat="51.465108" lon="5.307303">
        <ele>20.531212</ele>
        <time>2024-11-28T18:54:03.893Z</time>
      </trkpt>
      <trkpt lat="51.464936" lon="5.307300">
        <ele>20.528491</ele>
        <time>2024-11-28T18:54:08.258Z</time>
      </trkpt>
      <trkpt lat="51.464734" lon="5.307161">
        <ele>20.525015</ele>
        <time>2024-11-28T18:54:13.789Z</time>
      </trkpt>
      <trkpt lat="51.464554" lon="5.307303">
        <ele>20.521844</ele>
        <time>2024-11-28T18:54:18.834Z</time>
      </trkpt>
      <trkpt lat="51.463719" lon="5.308389">
        <ele>20.465914</ele>
        <time>2024-11-28T18:54:45.753Z</time>
      </trkpt>
      <trkpt lat="51.463297" lon="5.309083">
        <ele>20.434075</ele>
        <time>2024-11-28T18:55:01.181Z</time>
      </trkpt>
      <trkpt lat="51.463216" lon="5.309130">
        <ele>20.429536</ele>
        <time>2024-11-28T18:55:03.382Z</time>
      </trkpt>
      <trkpt lat="51.463055" lon="5.309068">
        <ele>20.442724</ele>
        <time>2024-11-28T18:55:07.663Z</time>
      </trkpt>
      <trkpt lat="51.462928" lon="5.308877">
        <ele>20.467362</ele>
        <time>2024-11-28T18:55:12.176Z</time>
      </trkpt>
      <trkpt lat="51.462736" lon="5.308479">
        <ele>20.511756</ele>
        <time>2024-11-28T18:55:20.352Z</time>
      </trkpt>
      <trkpt lat="51.462646" lon="5.308384">
        <ele>20.527005</ele>
        <time>2024-11-28T18:55:23.171Z</time>
      </trkpt>
      <trkpt lat="51.462537" lon="5.308440">
        <ele>20.543206</ele>
        <time>2024-11-28T18:55:26.191Z</time>
      </trkpt>
      <trkpt lat="51.462374" lon="5.308645">
        <ele>20.572521</ele>
        <time>2024-11-28T18:55:31.651Z</time>
      </trkpt>
      <trkpt lat="51.462116" lon="5.308968">
        <ele>20.618840</ele>
        <time>2024-11-28T18:55:40.324Z</time>
      </trkpt>
      <trkpt lat="51.462028" lon="5.308926">
        <ele>20.631836</ele>
        <time>2024-11-28T18:55:42.740Z</time>
      </trkpt>
      <trkpt lat="51.461917" lon="5.308809">
        <ele>20.650635</ele>
        <time>2024-11-28T18:55:46.209Z</time>
      </trkpt>
      <trkpt lat="51.461780" lon="5.308754">
        <ele>20.670626</ele>
        <time>2024-11-28T18:55:49.834Z</time>
      </trkpt>
      <trkpt lat="51.461736" lon="5.308437">
        <ele>20.678033</ele>
        <time>2024-11-28T18:55:55.008Z</time>
      </trkpt>
      <trkpt lat="51.461521" lon="5.308359">
        <ele>20.672208</ele>
        <time>2024-11-28T18:56:00.592Z</time>
      </trkpt>
      <trkpt lat="51.461425" lon="5.308233">
        <ele>20.668931</ele>
        <time>2024-11-28T18:56:03.722Z</time>
      </trkpt>
      <trkpt lat="51.461362" lon="5.308088">
        <ele>20.666020</ele>
        <time>2024-11-28T18:56:06.495Z</time>
      </trkpt>
      <trkpt lat="51.461388" lon="5.307919">
        <ele>20.663154</ele>
        <time>2024-11-28T18:56:09.219Z</time>
      </trkpt>
      <trkpt lat="51.461585" lon="5.307746">
        <ele>20.657219</ele>
        <time>2024-11-28T18:56:14.839Z</time>
      </trkpt>
      <trkpt lat="51.461800" lon="5.307370">
        <ele>20.648816</ele>
        <time>2024-11-28T18:56:22.844Z</time>
      </trkpt>
      <trkpt lat="51.461509" lon="5.306715">
        <ele>20.635570</ele>
        <time>2024-11-28T18:56:35.477Z</time>
      </trkpt>
      <trkpt lat="51.463215" lon="5.304642">
        <ele>20.857368</ele>
        <time>2024-11-28T18:57:30.934Z</time>
      </trkpt>
      <trkpt lat="51.463251" lon="5.304598">
        <ele>20.864971</ele>
        <time>2024-11-28T18:57:32.125Z</time>
      </trkpt>
      <trkpt lat="51.463246" lon="5.304472">
        <ele>20.878186</ele>
        <time>2024-11-28T18:57:34.219Z</time>
      </trkpt>
      <trkpt lat="51.462120" lon="5.302782">
        <ele>21.093118</ele>
        <time>2024-11-28T18:58:14.632Z</time>
      </trkpt>
      <trkpt lat="51.461952" lon="5.302622">
        <ele>21.065530</ele>
        <time>2024-11-28T18:58:19.564Z</time>
      </trkpt>
      <trkpt lat="51.461687" lon="5.302823">
        <ele>21.024137</ele>
        <time>2024-11-28T18:58:26.878Z</time>
      </trkpt>
      <trkpt lat="51.461044" lon="5.303602">
        <ele>20.910364</ele>
        <time>2024-11-28T18:58:46.908Z</time>
      </trkpt>
      <trkpt lat="51.461241" lon="5.304046">
        <ele>20.862402</ele>
        <time>2024-11-28T18:58:55.357Z</time>
      </trkpt>
      <trkpt lat="51.460072" lon="5.305403">
        <ele>20.920167</ele>
        <time>2024-11-28T18:59:32.059Z</time>
      </trkpt>
      <trkpt lat="51.459413" lon="5.304373">
        <ele>21.007093</ele>
        <time>2024-11-28T18:59:56.418Z</time>
      </trkpt>
      <trkpt lat="51.459280" lon="5.303764">
        <ele>21.059589</ele>
        <time>2024-11-28T19:00:06.867Z</time>
      </trkpt>
      <trkpt lat="51.459040" lon="5.303499">
        <ele>21.097622</ele>
        <time>2024-11-28T19:00:14.413Z</time>
      </trkpt>
      <trkpt lat="51.458728" lon="5.303390">
        <ele>21.139310</ele>
        <time>2024-11-28T19:00:22.650Z</time>
      </trkpt>
      <trkpt lat="51.458567" lon="5.303210">
        <ele>21.164928</ele>
        <time>2024-11-28T19:00:27.699Z</time>
      </trkpt>
      <trkpt lat="51.455376" lon="5.299049">
        <ele>21.017927</ele>
        <time>2024-11-28T19:02:11.304Z</time>
      </trkpt>
      <trkpt lat="51.454998" lon="5.298556">
        <ele>21.079269</ele>
        <time>2024-11-28T19:02:20.125Z</time>
      </trkpt>
      <trkpt lat="51.454831" lon="5.298338">
        <ele>21.106380</ele>
        <time>2024-11-28T19:02:23.934Z</time>
      </trkpt>
      <trkpt lat="51.454651" lon="5.298104">
        <ele>21.135553</ele>
        <time>2024-11-28T19:02:27.952Z</time>
      </trkpt>
      <trkpt lat="51.454145" lon="5.297858">
        <ele>21.161896</ele>
        <time>2024-11-28T19:02:36.712Z</time>
      </trkpt>
      <trkpt lat="51.453141" lon="5.297341">
        <ele>20.968426</ele>
        <time>2024-11-28T19:02:52.980Z</time>
      </trkpt>
      <trkpt lat="51.453062" lon="5.297387">
        <ele>20.953006</ele>
        <time>2024-11-28T19:02:54.248Z</time>
      </trkpt>
      <trkpt lat="51.452942" lon="5.297226">
        <ele>20.924306</ele>
        <time>2024-11-28T19:02:56.625Z</time>
      </trkpt>
      <trkpt lat="51.452140" lon="5.296654">
        <ele>21.031957</ele>
        <time>2024-11-28T19:03:10.688Z</time>
      </trkpt>
      <trkpt lat="51.451370" lon="5.296454">
        <ele>21.304727</ele>
        <time>2024-11-28T19:03:24.982Z</time>
      </trkpt>
      <trkpt lat="51.450045" lon="5.295493">
        <ele>21.710407</ele>
        <time>2024-11-28T19:03:51.878Z</time>
      </trkpt>
      <trkpt lat="51.449987" lon="5.295411">
        <ele>21.728979</ele>
        <time>2024-11-28T19:03:53.179Z</time>
      </trkpt>
      <trkpt lat="51.449877" lon="5.295374">
        <ele>21.755983</ele>
        <time>2024-11-28T19:03:55.145Z</time>
      </trkpt>
      <trkpt lat="51.449751" lon="5.295432">
        <ele>21.787477</ele>
        <time>2024-11-28T19:03:57.408Z</time>
      </trkpt>
      <trkpt lat="51.449385" lon="5.295931">
        <ele>21.902869</ele>
        <time>2024-11-28T19:04:05.502Z</time>
      </trkpt>
      <trkpt lat="51.448684" lon="5.296299">
        <ele>21.784259</ele>
        <time>2024-11-28T19:04:17.569Z</time>
      </trkpt>
      <trkpt lat="51.447123" lon="5.296807">
        <ele>21.542262</ele>
        <time>2024-11-28T19:04:44.283Z</time>
      </trkpt>
      <trkpt lat="51.446993" lon="5.296906">
        <ele>21.535113</ele>
        <time>2024-11-28T19:04:46.737Z</time>
      </trkpt>
      <trkpt lat="51.446762" lon="5.296989">
        <ele>21.523353</ele>
        <time>2024-11-28T19:04:50.773Z</time>
      </trkpt>
      <trkpt lat="51.446713" lon="5.296975">
        <ele>21.520881</ele>
        <time>2024-11-28T19:04:51.610Z</time>
      </trkpt>
      <trkpt lat="51.446568" lon="5.296832">
        <ele>21.512426</ele>
        <time>2024-11-28T19:04:54.516Z</time>
      </trkpt>
      <trkpt lat="51.446443" lon="5.296887">
        <ele>21.505987</ele>
        <time>2024-11-28T19:04:56.738Z</time>
      </trkpt>
      <trkpt lat="51.446251" lon="5.296845">
        <ele>21.496360</ele>
        <time>2024-11-28T19:05:00.036Z</time>
      </trkpt>
      <trkpt lat="51.446121" lon="5.296922">
        <ele>21.489476</ele>
        <time>2024-11-28T19:05:02.410Z</time>
      </trkpt>
      <trkpt lat="51.444530" lon="5.297027">
        <ele>21.376389</ele>
        <time>2024-11-28T19:05:29.340Z</time>
      </trkpt>
      <trkpt lat="51.444489" lon="5.296977">
        <ele>21.372514</ele>
        <time>2024-11-28T19:05:30.201Z</time>
      </trkpt>
      <trkpt lat="51.444461" lon="5.296873">
        <ele>21.367202</ele>
        <time>2024-11-28T19:05:31.388Z</time>
      </trkpt>
      <trkpt lat="51.444494" lon="5.296505">
        <ele>21.349768</ele>
        <time>2024-11-28T19:05:35.321Z</time>
      </trkpt>
      <trkpt lat="51.444438" lon="5.296034">
        <ele>21.363800</ele>
        <time>2024-11-28T19:05:40.416Z</time>
      </trkpt>
      <trkpt lat="51.444390" lon="5.295847">
        <ele>21.379362</ele>
        <time>2024-11-28T19:05:42.576Z</time>
      </trkpt>
      <trkpt lat="51.444321" lon="5.295777">
        <ele>21.389441</ele>
        <time>2024-11-28T19:05:43.982Z</time>
      </trkpt>
      <trkpt lat="51.443535" lon="5.295799">
        <ele>21.486494</ele>
        <time>2024-11-28T19:05:57.832Z</time>
      </trkpt>
      <trkpt lat="51.441986" lon="5.295844">
        <ele>21.945763</ele>
        <time>2024-11-28T19:06:25.816Z</time>
      </trkpt>
      <trkpt lat="51.441590" lon="5.295821">
        <ele>22.109097</ele>
        <time>2024-11-28T19:06:33.013Z</time>
      </trkpt>
      <trkpt lat="51.441009" lon="5.297389">
        <ele>22.624184</ele>
        <time>2024-11-28T19:07:05.434Z</time>
      </trkpt>
      <trkpt lat="51.440686" lon="5.297411">
        <ele>22.780084</ele>
        <time>2024-11-28T19:07:14.923Z</time>
      </trkpt>
      <trkpt lat="51.441236" lon="5.298588">
        <ele>23.116155</ele>
        <time>2024-11-28T19:07:39.564Z</time>
      </trkpt>
      <trkpt lat="51.442016" lon="5.300255">
        <ele>22.422252</ele>
        <time>2024-11-28T19:08:10.380Z</time>
      </trkpt>
      <trkpt lat="51.441607" lon="5.301297">
        <ele>22.232024</ele>
        <time>2024-11-28T19:08:28.970Z</time>
      </trkpt>
      <trkpt lat="51.441570" lon="5.301600">
        <ele>22.242737</ele>
        <time>2024-11-28T19:08:33.850Z</time>
      </trkpt>
      <trkpt lat="51.441566" lon="5.302096">
        <ele>22.259948</ele>
        <time>2024-11-28T19:08:41.900Z</time>
      </trkpt>
      <trkpt lat="51.441529" lon="5.302141">
        <ele>22.262533</ele>
        <time>2024-11-28T19:08:43.133Z</time>
      </trkpt>
      <trkpt lat="51.441240" lon="5.302195">
        <ele>22.278729</ele>
        <time>2024-11-28T19:08:50.824Z</time>
      </trkpt>
      <trkpt lat="51.441158" lon="5.302285">
        <ele>22.284259</ele>
        <time>2024-11-28T19:08:53.433Z</time>
      </trkpt>
      <trkpt lat="51.441074" lon="5.302593">
        <ele>22.295924</ele>
        <time>2024-11-28T19:08:59.018Z</time>
      </trkpt>
      <trkpt lat="51.440369" lon="5.304804">
        <ele>22.708735</ele>
        <time>2024-11-28T19:09:40.788Z</time>
      </trkpt>
      <trkpt lat="51.440342" lon="5.305015">
        <ele>22.750745</ele>
        <time>2024-11-28T19:09:50.120Z</time>
      </trkpt>
      <trkpt lat="51.440438" lon="5.305435">
        <ele>22.837994</ele>
        <time>2024-11-28T19:10:09.497Z</time>
      </trkpt>
      <trkpt lat="51.440414" lon="5.305603">
        <ele>22.871609</ele>
        <time>2024-11-28T19:10:16.969Z</time>
      </trkpt>
      <trkpt lat="51.440428" lon="5.306039">
        <ele>22.796888</ele>
        <time>2024-11-28T19:10:35.865Z</time>
      </trkpt>
      <trkpt lat="51.440429" lon="5.306059">
        <ele>22.793225</ele>
        <time>2024-11-28T19:10:36.753Z</time>
      </trkpt>
      <trkpt lat="51.440689" lon="5.307193">
        <ele>22.572592</ele>
        <time>2024-11-28T19:11:29.064Z</time>
      </trkpt>
      <trkpt lat="51.440713" lon="5.307399">
        <ele>22.534325</ele>
        <time>2024-11-28T19:11:38.163Z</time>
      </trkpt>
      <trkpt lat="51.440695" lon="5.307471">
        <ele>22.520160</ele>
        <time>2024-11-28T19:11:41.526Z</time>
      </trkpt>
      <trkpt lat="51.440584" lon="5.307634">
        <ele>22.476078</ele>
        <time>2024-11-28T19:11:51.979Z</time>
      </trkpt>
      <trkpt lat="51.440563" lon="5.307721">
        <ele>22.459042</ele>
        <time>2024-11-28T19:11:55.993Z</time>
      </trkpt>
      <trkpt lat="51.440584" lon="5.308162">
        <ele>22.378281</ele>
        <time>2024-11-28T19:12:15.188Z</time>
      </trkpt>
      <trkpt lat="51.440541" lon="5.308448">
        <ele>22.341084</ele>
        <time>2024-11-28T19:12:27.926Z</time>
      </trkpt>
      <trkpt lat="51.440574" lon="5.308645">
        <ele>22.330917</ele>
        <time>2024-11-28T19:12:36.757Z</time>
      </trkpt>
      <trkpt lat="51.440475" lon="5.309490">
        <ele>22.288065</ele>
        <time>2024-11-28T19:13:14.000Z</time>
      </trkpt>
      <trkpt lat="51.440502" lon="5.309884">
        <ele>22.268310</ele>
        <time>2024-11-28T19:13:31.158Z</time>
      </trkpt>
      <trkpt lat="51.440580" lon="5.310047">
        <ele>22.258069</ele>
        <time>2024-11-28T19:13:40.061Z</time>
      </trkpt>
      <trkpt lat="51.440706" lon="5.310215">
        <ele>22.244969</ele>
        <time>2024-11-28T19:13:51.431Z</time>
      </trkpt>
      <trkpt lat="51.440873" lon="5.310354">
        <ele>22.229926</ele>
        <time>2024-11-28T19:14:04.549Z</time>
      </trkpt>
      <trkpt lat="51.440993" lon="5.310594">
        <ele>22.214592</ele>
        <time>2024-11-28T19:14:17.865Z</time>
      </trkpt>
      <trkpt lat="51.441259" lon="5.310940">
        <ele>22.239036</ele>
        <time>2024-11-28T19:14:41.650Z</time>
      </trkpt>
      <trkpt lat="51.441259" lon="5.310940">
        <ele>22.239036</ele>
        <time>2024-11-28T19:14:41.671Z</time>
      </trkpt>
      <trkpt lat="51.441378" lon="5.311158">
        <ele>22.270620</ele>
        <time>2024-11-28T19:14:54.217Z</time>
      </trkpt>
      <trkpt lat="51.441596" lon="5.311776">
        <ele>22.348014</ele>
        <time>2024-11-28T19:15:24.957Z</time>
      </trkpt>
      <trkpt lat="51.441419" lon="5.313232">
        <ele>22.509695</ele>
        <time>2024-11-28T19:15:48.405Z</time>
      </trkpt>
      <trkpt lat="51.441412" lon="5.313295">
        <ele>22.516670</ele>
        <time>2024-11-28T19:15:49.429Z</time>
      </trkpt>
      <trkpt lat="51.441184" lon="5.313451">
        <ele>22.597950</ele>
        <time>2024-11-28T19:16:06.635Z</time>
      </trkpt>
      <trkpt lat="51.441007" lon="5.313835">
        <ele>22.696987</ele>
        <time>2024-11-28T19:16:27.311Z</time>
      </trkpt>
      <trkpt lat="51.440921" lon="5.314152">
        <ele>22.768680</ele>
        <time>2024-11-28T19:16:42.303Z</time>
      </trkpt>
      <trkpt lat="51.440894" lon="5.314392">
        <ele>22.819253</ele>
        <time>2024-11-28T19:16:52.870Z</time>
      </trkpt>
      <trkpt lat="51.440834" lon="5.314569">
        <ele>22.861034</ele>
        <time>2024-11-28T19:17:01.581Z</time>
      </trkpt>
      <trkpt lat="51.440828" lon="5.315126">
        <ele>22.976556</ele>
        <time>2024-11-28T19:17:25.745Z</time>
      </trkpt>
      <trkpt lat="51.440803" lon="5.315396">
        <ele>23.033160</ele>
        <time>2024-11-28T19:17:37.554Z</time>
      </trkpt>
      <trkpt lat="51.440744" lon="5.316034">
        <ele>23.131114</ele>
        <time>2024-11-28T19:18:05.482Z</time>
      </trkpt>
      <trkpt lat="51.440699" lon="5.316284">
        <ele>23.146863</ele>
        <time>2024-11-28T19:18:16.785Z</time>
      </trkpt>
      <trkpt lat="51.440648" lon="5.316798">
        <ele>23.178363</ele>
        <time>2024-11-28T19:18:39.314Z</time>
      </trkpt>
      <trkpt lat="51.440630" lon="5.316970">
        <ele>23.188919</ele>
        <time>2024-11-28T19:18:46.865Z</time>
      </trkpt>
      <trkpt lat="51.440505" lon="5.317441">
        <ele>23.219901</ele>
        <time>2024-11-28T19:19:09.039Z</time>
      </trkpt>
      <trkpt lat="51.440427" lon="5.317604">
        <ele>23.232338</ele>
        <time>2024-11-28T19:19:17.944Z</time>
      </trkpt>
      <trkpt lat="51.440291" lon="5.317814">
        <ele>23.250666</ele>
        <time>2024-11-28T19:19:31.063Z</time>
      </trkpt>
      <trkpt lat="51.440185" lon="5.317978">
        <ele>23.264965</ele>
        <time>2024-11-28T19:19:41.331Z</time>
      </trkpt>
      <trkpt lat="51.440089" lon="5.318065">
        <ele>23.275671</ele>
        <time>2024-11-28T19:19:48.974Z</time>
      </trkpt>
      <trkpt lat="51.439978" lon="5.318314">
        <ele>23.292376</ele>
        <time>2024-11-28T19:20:02.230Z</time>
      </trkpt>
      <trkpt lat="51.439708" lon="5.318501">
        <ele>23.304647</ele>
        <time>2024-11-28T19:20:22.676Z</time>
      </trkpt>
      <trkpt lat="51.439708" lon="5.318501">
        <ele>23.304647</ele>
        <time>2024-11-28T19:20:22.688Z</time>
      </trkpt>
      <trkpt lat="51.439702" lon="5.318478">
        <ele>23.305295</ele>
        <time>2024-11-28T19:20:23.352Z</time>
      </trkpt>
      <trkpt lat="51.439672" lon="5.318504">
        <ele>23.306718</ele>
        <time>2024-11-28T19:20:24.811Z</time>
      </trkpt>
      <trkpt lat="51.439610" lon="5.318550">
        <ele>23.309568</ele>
        <time>2024-11-28T19:20:27.732Z</time>
      </trkpt>
      <trkpt lat="51.439549" lon="5.318614">
        <ele>23.312609</ele>
        <time>2024-11-28T19:20:30.849Z</time>
      </trkpt>
      <trkpt lat="51.439482" lon="5.318622">
        <ele>23.315413</ele>
        <time>2024-11-28T19:20:33.722Z</time>
      </trkpt>
      <trkpt lat="51.439432" lon="5.318543">
        <ele>23.318341</ele>
        <time>2024-11-28T19:20:36.724Z</time>
      </trkpt>
      <trkpt lat="51.439401" lon="5.318497">
        <ele>23.320103</ele>
        <time>2024-11-28T19:20:38.531Z</time>
      </trkpt>
      <trkpt lat="51.439296" lon="5.318356">
        <ele>23.325816</ele>
        <time>2024-11-28T19:20:44.387Z</time>
      </trkpt>
      <trkpt lat="51.439230" lon="5.318232">
        <ele>23.330057</ele>
        <time>2024-11-28T19:20:48.734Z</time>
      </trkpt>
      <trkpt lat="51.439162" lon="5.318087">
        <ele>23.334776</ele>
        <time>2024-11-28T19:20:53.571Z</time>
      </trkpt>
      <trkpt lat="51.439078" lon="5.317940">
        <ele>23.339963</ele>
        <time>2024-11-28T19:20:58.887Z</time>
      </trkpt>
      <trkpt lat="51.438811" lon="5.317389">
        <ele>23.358115</ele>
        <time>2024-11-28T19:21:17.492Z</time>
      </trkpt>
      <trkpt lat="51.438653" lon="5.317009">
        <ele>23.385905</ele>
        <time>2024-11-28T19:21:29.669Z</time>
      </trkpt>
      <trkpt lat="51.438567" lon="5.317078">
        <ele>23.406098</ele>
        <time>2024-11-28T19:21:33.781Z</time>
      </trkpt>
      <trkpt lat="51.438567" lon="5.317078">
        <ele>23.406098</ele>
        <time>2024-11-28T19:21:33.788Z</time>
      </trkpt>
      <trkpt lat="51.438109" lon="5.315601">
        <ele>23.622055</ele>
        <time>2024-11-28T19:22:01.028Z</time>
      </trkpt>
      <trkpt lat="51.437296" lon="5.316246">
        <ele>23.508678</ele>
        <time>2024-11-28T19:22:24.766Z</time>
      </trkpt>
      <trkpt lat="51.437148" lon="5.316333">
        <ele>23.395478</ele>
        <time>2024-11-28T19:22:28.653Z</time>
      </trkpt>
      <trkpt lat="51.436863" lon="5.316380">
        <ele>23.189723</ele>
        <time>2024-11-28T19:22:35.523Z</time>
      </trkpt>
      <trkpt lat="51.436871" lon="5.317043">
        <ele>22.892852</ele>
        <time>2024-11-28T19:23:04.222Z</time>
      </trkpt>
      <trkpt lat="51.436836" lon="5.318695">
        <ele>22.367298</ele>
        <time>2024-11-28T19:24:15.829Z</time>
      </trkpt>
      <trkpt lat="51.436775" lon="5.318835">
        <ele>22.345636</ele>
        <time>2024-11-28T19:24:17.362Z</time>
      </trkpt>
      <trkpt lat="51.436980" lon="5.319202">
        <ele>22.283139</ele>
        <time>2024-11-28T19:24:21.934Z</time>
      </trkpt>
      <trkpt lat="51.437108" lon="5.319519">
        <ele>22.235239</ele>
        <time>2024-11-28T19:24:25.666Z</time>
      </trkpt>
      <trkpt lat="51.436866" lon="5.320774">
        <ele>22.115740</ele>
        <time>2024-11-28T19:24:40.944Z</time>
      </trkpt>
      <trkpt lat="51.436715" lon="5.321481">
        <ele>22.276093</ele>
        <time>2024-11-28T19:24:49.918Z</time>
      </trkpt>
      <trkpt lat="51.436623" lon="5.321697">
        <ele>22.332223</ele>
        <time>2024-11-28T19:24:54.459Z</time>
      </trkpt>
      <trkpt lat="51.436383" lon="5.322207">
        <ele>22.469330</ele>
        <time>2024-11-28T19:25:05.263Z</time>
      </trkpt>
      <trkpt lat="51.436171" lon="5.322530">
        <ele>22.569965</ele>
        <time>2024-11-28T19:25:12.910Z</time>
      </trkpt>
      <trkpt lat="51.435620" lon="5.323079">
        <ele>22.667428</ele>
        <time>2024-11-28T19:25:29.273Z</time>
      </trkpt>
      <trkpt lat="51.435034" lon="5.323526">
        <ele>22.571529</ele>
        <time>2024-11-28T19:25:45.365Z</time>
      </trkpt>
      <trkpt lat="51.434483" lon="5.323802">
        <ele>22.486218</ele>
        <time>2024-11-28T19:25:54.857Z</time>
      </trkpt>
      <trkpt lat="51.433554" lon="5.324242">
        <ele>22.577673</ele>
        <time>2024-11-28T19:26:19.454Z</time>
      </trkpt>
      <trkpt lat="51.433993" lon="5.326150">
        <ele>22.846382</ele>
        <time>2024-11-28T19:26:53.880Z</time>
      </trkpt>
      <trkpt lat="51.434501" lon="5.328309">
        <ele>23.148363</ele>
        <time>2024-11-28T19:27:31.648Z</time>
      </trkpt>
      <trkpt lat="51.433247" lon="5.329668">
        <ele>23.215927</ele>
        <time>2024-11-28T19:28:10.533Z</time>
      </trkpt>
      <trkpt lat="51.433434" lon="5.330184">
        <ele>23.221010</ele>
        <time>2024-11-28T19:28:19.816Z</time>
      </trkpt>
      <trkpt lat="51.434907" lon="5.333386">
        <ele>22.796884</ele>
        <time>2024-11-28T19:29:21.516Z</time>
      </trkpt>
      <trkpt lat="51.433651" lon="5.336664">
        <ele>22.614512</ele>
        <time>2024-11-28T19:30:02.535Z</time>
      </trkpt>
      <trkpt lat="51.433598" lon="5.336803">
        <ele>22.606827</ele>
        <time>2024-11-28T19:30:04.266Z</time>
      </trkpt>
      <trkpt lat="51.433489" lon="5.337013">
        <ele>22.593940</ele>
        <time>2024-11-28T19:30:07.164Z</time>
      </trkpt>
      <trkpt lat="51.433376" lon="5.337102">
        <ele>22.584417</ele>
        <time>2024-11-28T19:30:09.072Z</time>
      </trkpt>
      <trkpt lat="51.432368" lon="5.337880">
        <ele>22.322106</ele>
        <time>2024-11-28T19:30:25.492Z</time>
      </trkpt>
      <trkpt lat="51.432491" lon="5.339851">
        <ele>22.097699</ele>
        <time>2024-11-28T19:30:43.597Z</time>
      </trkpt>
      <trkpt lat="51.432577" lon="5.341204">
        <ele>22.237247</ele>
        <time>2024-11-28T19:30:57.342Z</time>
      </trkpt>
      <trkpt lat="51.432693" lon="5.341811">
        <ele>22.302391</ele>
        <time>2024-11-28T19:31:04.089Z</time>
      </trkpt>
      <trkpt lat="51.432952" lon="5.342881">
        <ele>22.466067</ele>
        <time>2024-11-28T19:31:15.911Z</time>
      </trkpt>
      <trkpt lat="51.433035" lon="5.343104">
        <ele>22.509425</ele>
        <time>2024-11-28T19:31:18.541Z</time>
      </trkpt>
      <trkpt lat="51.433260" lon="5.343410">
        <ele>22.588417</ele>
        <time>2024-11-28T19:31:23.355Z</time>
      </trkpt>
      <trkpt lat="51.433161" lon="5.343561">
        <ele>22.624999</ele>
        <time>2024-11-28T19:31:25.715Z</time>
      </trkpt>
      <trkpt lat="51.433065" lon="5.343707">
        <ele>22.660424</ele>
        <time>2024-11-28T19:31:28.013Z</time>
      </trkpt>
      <trkpt lat="51.432080" lon="5.345210">
        <ele>22.827139</ele>
        <time>2024-11-28T19:31:51.135Z</time>
      </trkpt>
      <trkpt lat="51.431352" lon="5.346626">
        <ele>22.811255</ele>
        <time>2024-11-28T19:32:19.872Z</time>
      </trkpt>
      <trkpt lat="51.430764" lon="5.347680">
        <ele>22.653911</ele>
        <time>2024-11-28T19:32:42.066Z</time>
      </trkpt>
      <trkpt lat="51.430402" lon="5.348427">
        <ele>22.548657</ele>
        <time>2024-11-28T19:32:56.799Z</time>
      </trkpt>
      <trkpt lat="51.430390" lon="5.348453">
        <ele>22.545059</ele>
        <time>2024-11-28T19:32:57.306Z</time>
      </trkpt>
      <trkpt lat="51.430356" lon="5.348526">
        <ele>22.534922</ele>
        <time>2024-11-28T19:32:58.714Z</time>
      </trkpt>
      <trkpt lat="51.430195" lon="5.348836">
        <ele>22.488093</ele>
        <time>2024-11-28T19:33:04.939Z</time>
      </trkpt>
      <trkpt lat="51.429853" lon="5.349569">
        <ele>22.372133</ele>
        <time>2024-11-28T19:33:18.918Z</time>
      </trkpt>
      <trkpt lat="51.428882" lon="5.351280">
        <ele>22.261267</ele>
        <time>2024-11-28T19:33:54.952Z</time>
      </trkpt>
      <trkpt lat="51.428619" lon="5.351694">
        <ele>22.415312</ele>
        <time>2024-11-28T19:34:04.901Z</time>
      </trkpt>
      <trkpt lat="51.427009" lon="5.353525">
        <ele>23.136990</ele>
        <time>2024-11-28T19:34:59.814Z</time>
      </trkpt>
      <trkpt lat="51.426824" lon="5.353726">
        <ele>23.202796</ele>
        <time>2024-11-28T19:35:05.536Z</time>
      </trkpt>
      <trkpt lat="51.426317" lon="5.354095">
        <ele>23.366761</ele>
        <time>2024-11-28T19:35:19.722Z</time>
      </trkpt>
      <trkpt lat="51.426160" lon="5.354270">
        <ele>23.421248</ele>
        <time>2024-11-28T19:35:24.646Z</time>
      </trkpt>
      <trkpt lat="51.425852" lon="5.354476">
        <ele>23.456279</ele>
        <time>2024-11-28T19:35:33.270Z</time>
      </trkpt>
      <trkpt lat="51.425796" lon="5.354514">
        <ele>23.462662</ele>
        <time>2024-11-28T19:35:34.232Z</time>
      </trkpt>
      <trkpt lat="51.425703" lon="5.354598">
        <ele>23.473867</ele>
        <time>2024-11-28T19:35:35.895Z</time>
      </trkpt>
      <trkpt lat="51.425565" lon="5.354651">
        <ele>23.488763</ele>
        <time>2024-11-28T19:35:38.138Z</time>
      </trkpt>
      <trkpt lat="51.424997" lon="5.355169">
        <ele>23.557356</ele>
        <time>2024-11-28T19:35:48.638Z</time>
      </trkpt>
      <trkpt lat="51.424639" lon="5.355596">
        <ele>23.604191</ele>
        <time>2024-11-28T19:36:00.306Z</time>
      </trkpt>
      <trkpt lat="51.424219" lon="5.356034">
        <ele>23.510373</ele>
        <time>2024-11-28T19:36:13.005Z</time>
      </trkpt>
      <trkpt lat="51.423747" lon="5.356445">
        <ele>23.393804</ele>
        <time>2024-11-28T19:36:26.331Z</time>
      </trkpt>
      <trkpt lat="51.423150" lon="5.356763">
        <ele>23.257271</ele>
        <time>2024-11-28T19:36:41.885Z</time>
      </trkpt>
      <trkpt lat="51.422698" lon="5.356852">
        <ele>23.143355</ele>
        <time>2024-11-28T19:36:53.064Z</time>
      </trkpt>
      <trkpt lat="51.422364" lon="5.356965">
        <ele>23.050725</ele>
        <time>2024-11-28T19:37:01.410Z</time>
      </trkpt>
      <trkpt lat="51.422085" lon="5.357103">
        <ele>22.971497</ele>
        <time>2024-11-28T19:37:08.589Z</time>
      </trkpt>
      <trkpt lat="51.421596" lon="5.357418">
        <ele>22.828497</ele>
        <time>2024-11-28T19:37:21.602Z</time>
      </trkpt>
      <trkpt lat="51.421073" lon="5.357661">
        <ele>22.729614</ele>
        <time>2024-11-28T19:37:35.332Z</time>
      </trkpt>
      <trkpt lat="51.419925" lon="5.357871">
        <ele>22.723423</ele>
        <time>2024-11-28T19:38:04.870Z</time>
      </trkpt>
      <trkpt lat="51.419064" lon="5.358125">
        <ele>22.785630</ele>
        <time>2024-11-28T19:38:27.155Z</time>
      </trkpt>
      <trkpt lat="51.418801" lon="5.358248">
        <ele>22.828219</ele>
        <time>2024-11-28T19:38:34.286Z</time>
      </trkpt>
      <trkpt lat="51.418134" lon="5.358659">
        <ele>22.939301</ele>
        <time>2024-11-28T19:38:52.975Z</time>
      </trkpt>
      <trkpt lat="51.417822" lon="5.358789">
        <ele>22.989414</ele>
        <time>2024-11-28T19:39:01.515Z</time>
      </trkpt>
      <trkpt lat="51.417720" lon="5.358800">
        <ele>23.010175</ele>
        <time>2024-11-28T19:39:04.245Z</time>
      </trkpt>
      <trkpt lat="51.417438" lon="5.358831">
        <ele>23.099308</ele>
        <time>2024-11-28T19:39:11.722Z</time>
      </trkpt>
      <trkpt lat="51.417126" lon="5.358805">
        <ele>23.197825</ele>
        <time>2024-11-28T19:39:19.888Z</time>
      </trkpt>
      <trkpt lat="51.416555" lon="5.358587">
        <ele>23.382915</ele>
        <time>2024-11-28T19:39:35.298Z</time>
      </trkpt>
      <trkpt lat="51.416297" lon="5.358213">
        <ele>23.492589</ele>
        <time>2024-11-28T19:39:41.097Z</time>
      </trkpt>
      <trkpt lat="51.416050" lon="5.358101">
        <ele>23.573746</ele>
        <time>2024-11-28T19:39:45.536Z</time>
      </trkpt>
      <trkpt lat="51.415799" lon="5.358147">
        <ele>23.656372</ele>
        <time>2024-11-28T19:39:50.031Z</time>
      </trkpt>
      <trkpt lat="51.415288" lon="5.358240">
        <ele>23.824572</ele>
        <time>2024-11-28T19:39:59.423Z</time>
      </trkpt>
      <trkpt lat="51.414959" lon="5.358321">
        <ele>23.933435</ele>
        <time>2024-11-28T19:40:06.781Z</time>
      </trkpt>
      <trkpt lat="51.414654" lon="5.358457">
        <ele>24.036973</ele>
        <time>2024-11-28T19:40:13.255Z</time>
      </trkpt>
      <trkpt lat="51.414609" lon="5.359029">
        <ele>24.154574</ele>
        <time>2024-11-28T19:40:20.462Z</time>
      </trkpt>
      <trkpt lat="51.414658" lon="5.359185">
        <ele>24.151076</ele>
        <time>2024-11-28T19:40:22.635Z</time>
      </trkpt>
      <trkpt lat="51.414670" lon="5.360080">
        <ele>24.124739</ele>
        <time>2024-11-28T19:40:33.673Z</time>
      </trkpt>
      <trkpt lat="51.414709" lon="5.360757">
        <ele>24.104737</ele>
        <time>2024-11-28T19:40:44.179Z</time>
      </trkpt>
      <trkpt lat="51.414801" lon="5.362334">
        <ele>24.177981</ele>
        <time>2024-11-28T19:41:09.793Z</time>
      </trkpt>
      <trkpt lat="51.414826" lon="5.362759">
        <ele>24.280985</ele>
        <time>2024-11-28T19:41:17.155Z</time>
      </trkpt>
      <trkpt lat="51.414835" lon="5.362833">
        <ele>24.299177</ele>
        <time>2024-11-28T19:41:18.449Z</time>
      </trkpt>
      <trkpt lat="51.415003" lon="5.364227">
        <ele>24.641759</ele>
        <time>2024-11-28T19:41:42.709Z</time>
      </trkpt>
      <trkpt lat="51.415302" lon="5.365789">
        <ele>24.886059</ele>
        <time>2024-11-28T19:42:09.724Z</time>
      </trkpt>
      <trkpt lat="51.415352" lon="5.366053">
        <ele>24.915519</ele>
        <time>2024-11-28T19:42:14.156Z</time>
      </trkpt>
      <trkpt lat="51.415162" lon="5.366208">
        <ele>24.952016</ele>
        <time>2024-11-28T19:42:19.663Z</time>
      </trkpt>
      <trkpt lat="51.414624" lon="5.366228">
        <ele>25.044149</ele>
        <time>2024-11-28T19:42:33.609Z</time>
      </trkpt>
      <trkpt lat="51.414411" lon="5.366367">
        <ele>25.073622</ele>
        <time>2024-11-28T19:42:39.531Z</time>
      </trkpt>
      <trkpt lat="51.414377" lon="5.366453">
        <ele>25.071911</ele>
        <time>2024-11-28T19:42:41.166Z</time>
      </trkpt>
      <trkpt lat="51.414186" lon="5.366311">
        <ele>25.066239</ele>
        <time>2024-11-28T19:42:46.553Z</time>
      </trkpt>
      <trkpt lat="51.413643" lon="5.366316">
        <ele>25.051609</ele>
        <time>2024-11-28T19:43:00.355Z</time>
      </trkpt>
      <trkpt lat="51.413442" lon="5.366219">
        <ele>25.045953</ele>
        <time>2024-11-28T19:43:05.663Z</time>
      </trkpt>
      <trkpt lat="51.413126" lon="5.365859">
        <ele>25.035509</ele>
        <time>2024-11-28T19:43:15.362Z</time>
      </trkpt>
      <trkpt lat="51.412221" lon="5.365689">
        <ele>25.110733</ele>
        <time>2024-11-28T19:43:38.438Z</time>
      </trkpt>
      <trkpt lat="51.411729" lon="5.365730">
        <ele>25.182636</ele>
        <time>2024-11-28T19:43:51.628Z</time>
      </trkpt>
      <trkpt lat="51.411194" lon="5.365685">
        <ele>25.260824</ele>
        <time>2024-11-28T19:44:05.679Z</time>
      </trkpt>
      <trkpt lat="51.410969" lon="5.365664">
        <ele>25.288141</ele>
        <time>2024-11-28T19:44:11.612Z</time>
      </trkpt>
      <trkpt lat="51.410656" lon="5.365745">
        <ele>25.279565</ele>
        <time>2024-11-28T19:44:19.931Z</time>
      </trkpt>
      <trkpt lat="51.410557" lon="5.365843">
        <ele>25.276418</ele>
        <time>2024-11-28T19:44:22.844Z</time>
      </trkpt>
      <trkpt lat="51.410327" lon="5.366047">
        <ele>25.269307</ele>
        <time>2024-11-28T19:44:29.612Z</time>
      </trkpt>
      <trkpt lat="51.410202" lon="5.365873">
        <ele>25.264829</ele>
        <time>2024-11-28T19:44:33.781Z</time>
      </trkpt>
      <trkpt lat="51.410120" lon="5.365595">
        <ele>25.259641</ele>
        <time>2024-11-28T19:44:38.587Z</time>
      </trkpt>
      <trkpt lat="51.410120" lon="5.365595">
        <ele>25.259641</ele>
        <time>2024-11-28T19:44:38.604Z</time>
      </trkpt>
      <trkpt lat="51.410120" lon="5.365595">
        <ele>25.259641</ele>
        <time>2024-11-28T19:44:38.604Z</time>
      </trkpt>
      <trkpt lat="51.409707" lon="5.364828">
        <ele>25.242545</ele>
        <time>2024-11-28T19:45:05.633Z</time>
      </trkpt>
      <trkpt lat="51.409295" lon="5.364060">
        <ele>25.104488</ele>
        <time>2024-11-28T19:45:32.656Z</time>
      </trkpt>
      <trkpt lat="51.409239" lon="5.363003">
        <ele>24.941340</ele>
        <time>2024-11-28T19:46:00.954Z</time>
      </trkpt>
      <trkpt lat="51.409239" lon="5.363003">
        <ele>24.941340</ele>
        <time>2024-11-28T19:46:00.962Z</time>
      </trkpt>
      <trkpt lat="51.408008" lon="5.364233">
        <ele>24.530794</ele>
        <time>2024-11-28T19:46:36.539Z</time>
      </trkpt>
      <trkpt lat="51.407919" lon="5.363791">
        <ele>24.441635</ele>
        <time>2024-11-28T19:46:43.640Z</time>
      </trkpt>
      <trkpt lat="51.407465" lon="5.362125">
        <ele>24.229204</ele>
        <time>2024-11-28T19:47:11.785Z</time>
      </trkpt>
      <trkpt lat="51.407210" lon="5.360504">
        <ele>24.199087</ele>
        <time>2024-11-28T19:47:38.528Z</time>
      </trkpt>
      <trkpt lat="51.407139" lon="5.360056">
        <ele>24.198980</ele>
        <time>2024-11-28T19:47:45.990Z</time>
      </trkpt>
      <trkpt lat="51.407139" lon="5.360051">
        <ele>24.200043</ele>
        <time>2024-11-28T19:47:46.067Z</time>
      </trkpt>
      <trkpt lat="51.407349" lon="5.359806">
        <ele>24.288580</ele>
        <time>2024-11-28T19:47:52.893Z</time>
      </trkpt>
      <trkpt lat="51.407567" lon="5.359366">
        <ele>24.408064</ele>
        <time>2024-11-28T19:48:02.156Z</time>
      </trkpt>
      <trkpt lat="51.407681" lon="5.359186">
        <ele>24.462609</ele>
        <time>2024-11-28T19:48:06.447Z</time>
      </trkpt>
      <trkpt lat="51.407756" lon="5.358996">
        <ele>24.510420</ele>
        <time>2024-11-28T19:48:10.214Z</time>
      </trkpt>
      <trkpt lat="51.408358" lon="5.357465">
        <ele>24.885976</ele>
        <time>2024-11-28T19:48:41.081Z</time>
      </trkpt>
      <trkpt lat="51.408417" lon="5.357324">
        <ele>24.918388</ele>
        <time>2024-11-28T19:48:42.929Z</time>
      </trkpt>
      <trkpt lat="51.408446" lon="5.357242">
        <ele>24.936382</ele>
        <time>2024-11-28T19:48:43.939Z</time>
      </trkpt>
      <trkpt lat="51.408505" lon="5.357096">
        <ele>24.969590</ele>
        <time>2024-11-28T19:48:45.832Z</time>
      </trkpt>
      <trkpt lat="51.408545" lon="5.356997">
        <ele>24.992107</ele>
        <time>2024-11-28T19:48:47.102Z</time>
      </trkpt>
      <trkpt lat="51.408570" lon="5.356933">
        <ele>25.006522</ele>
        <time>2024-11-28T19:48:47.928Z</time>
      </trkpt>
      <trkpt lat="51.408662" lon="5.356706">
        <ele>25.058199</ele>
        <time>2024-11-28T19:48:50.827Z</time>
      </trkpt>
      <trkpt lat="51.408707" lon="5.356597">
        <ele>25.083151</ele>
        <time>2024-11-28T19:48:52.215Z</time>
      </trkpt>
      <trkpt lat="51.408737" lon="5.356501">
        <ele>25.103648</ele>
        <time>2024-11-28T19:48:53.339Z</time>
      </trkpt>
      <trkpt lat="51.408765" lon="5.356406">
        <ele>25.123705</ele>
        <time>2024-11-28T19:48:54.438Z</time>
      </trkpt>
      <trkpt lat="51.408773" lon="5.356328">
        <ele>25.138795</ele>
        <time>2024-11-28T19:48:55.301Z</time>
      </trkpt>
      <trkpt lat="51.408777" lon="5.356249">
        <ele>25.153925</ele>
        <time>2024-11-28T19:48:58.719Z</time>
      </trkpt>
      <trkpt lat="51.408721" lon="5.356068">
        <ele>25.192493</ele>
        <time>2024-11-28T19:49:07.485Z</time>
      </trkpt>
      <trkpt lat="51.408676" lon="5.356015">
        <ele>25.209582</ele>
        <time>2024-11-28T19:49:11.385Z</time>
      </trkpt>
      <trkpt lat="51.408469" lon="5.355772">
        <ele>25.288099</ele>
        <time>2024-11-28T19:49:29.222Z</time>
      </trkpt>
      <trkpt lat="51.408269" lon="5.355564">
        <ele>25.356015</ele>
        <time>2024-11-28T19:49:35.240Z</time>
      </trkpt>
      <trkpt lat="51.407581" lon="5.355077">
        <ele>25.394842</ele>
        <time>2024-11-28T19:49:54.186Z</time>
      </trkpt>
      <trkpt lat="51.407424" lon="5.355007">
        <ele>25.403255</ele>
        <time>2024-11-28T19:49:58.329Z</time>
      </trkpt>
      <trkpt lat="51.407221" lon="5.354917">
        <ele>25.414128</ele>
        <time>2024-11-28T19:50:03.660Z</time>
      </trkpt>
      <trkpt lat="51.406716" lon="5.354138">
        <ele>25.460231</ele>
        <time>2024-11-28T19:50:21.686Z</time>
      </trkpt>
      <trkpt lat="51.406153" lon="5.353362">
        <ele>25.653137</ele>
        <time>2024-11-28T19:50:41.765Z</time>
      </trkpt>
      <trkpt lat="51.405159" lon="5.352528">
        <ele>25.907062</ele>
        <time>2024-11-28T19:51:11.467Z</time>
      </trkpt>
      <trkpt lat="51.405285" lon="5.351853">
        <ele>25.875692</ele>
        <time>2024-11-28T19:51:22.638Z</time>
      </trkpt>
      <trkpt lat="51.405298" lon="5.351783">
        <ele>25.872440</ele>
        <time>2024-11-28T19:51:23.781Z</time>
      </trkpt>
      <trkpt lat="51.405428" lon="5.350869">
        <ele>25.830702</ele>
        <time>2024-11-28T19:51:38.332Z</time>
      </trkpt>
      <trkpt lat="51.405428" lon="5.350742">
        <ele>25.825048</ele>
        <time>2024-11-28T19:51:40.275Z</time>
      </trkpt>
      <trkpt lat="51.405399" lon="5.350621">
        <ele>25.819276</ele>
        <time>2024-11-28T19:51:42.265Z</time>
      </trkpt>
      <trkpt lat="51.405214" lon="5.349544">
        <ele>25.872429</ele>
        <time>2024-11-28T19:51:59.752Z</time>
      </trkpt>
      <trkpt lat="51.404879" lon="5.347984">
        <ele>26.237315</ele>
        <time>2024-11-28T19:52:27.304Z</time>
      </trkpt>
      <trkpt lat="51.404384" lon="5.345613">
        <ele>26.834604</ele>
        <time>2024-11-28T19:53:11.752Z</time>
      </trkpt>
      <trkpt lat="51.404282" lon="5.345122">
        <ele>26.962926</ele>
        <time>2024-11-28T19:53:20.362Z</time>
      </trkpt>
      <trkpt lat="51.402739" lon="5.347504">
        <ele>26.812127</ele>
        <time>2024-11-28T19:54:13.334Z</time>
      </trkpt>
      <trkpt lat="51.402808" lon="5.347612">
        <ele>26.793541</ele>
        <time>2024-11-28T19:54:15.814Z</time>
      </trkpt>
      <trkpt lat="51.402739" lon="5.347504">
        <ele>26.816942</ele>
        <time>2024-11-28T19:54:18.306Z</time>
      </trkpt>
      <trkpt lat="51.402659" lon="5.347616">
        <ele>26.844722</ele>
        <time>2024-11-28T19:54:21.064Z</time>
      </trkpt>
      <trkpt lat="51.402614" lon="5.347680">
        <ele>26.860455</ele>
        <time>2024-11-28T19:54:22.635Z</time>
      </trkpt>
      <trkpt lat="51.402530" lon="5.347689">
        <ele>26.882473</ele>
        <time>2024-11-28T19:54:24.857Z</time>
      </trkpt>
      <trkpt lat="51.402461" lon="5.347638">
        <ele>26.902345</ele>
        <time>2024-11-28T19:54:26.865Z</time>
      </trkpt>
      <trkpt lat="51.402161" lon="5.347098">
        <ele>27.020323</ele>
        <time>2024-11-28T19:54:38.990Z</time>
      </trkpt>
      <trkpt lat="51.401020" lon="5.344890">
        <ele>27.363982</ele>
        <time>2024-11-28T19:55:27.010Z</time>
      </trkpt>
      <trkpt lat="51.400183" lon="5.342794">
        <ele>27.223859</ele>
        <time>2024-11-28T19:56:06.076Z</time>
      </trkpt>
      <trkpt lat="51.400139" lon="5.342685">
        <ele>27.190865</ele>
        <time>2024-11-28T19:56:08.043Z</time>
      </trkpt>
      <trkpt lat="51.399989" lon="5.342289">
        <ele>27.073129</ele>
        <time>2024-11-28T19:56:13.566Z</time>
      </trkpt>
      <trkpt lat="51.399749" lon="5.342316">
        <ele>26.975123</ele>
        <time>2024-11-28T19:56:18.135Z</time>
      </trkpt>
      <trkpt lat="51.399755" lon="5.343069">
        <ele>26.783739</ele>
        <time>2024-11-28T19:56:27.035Z</time>
      </trkpt>
      <trkpt lat="51.399676" lon="5.344378">
        <ele>26.577884</ele>
        <time>2024-11-28T19:56:42.660Z</time>
      </trkpt>
      <trkpt lat="51.399618" lon="5.344907">
        <ele>26.501436</ele>
        <time>2024-11-28T19:56:49.304Z</time>
      </trkpt>
      <trkpt lat="51.399311" lon="5.344822">
        <ele>26.430360</ele>
        <time>2024-11-28T19:56:54.332Z</time>
      </trkpt>
      <trkpt lat="51.399257" lon="5.344453">
        <ele>26.376413</ele>
        <time>2024-11-28T19:56:58.188Z</time>
      </trkpt>
      <trkpt lat="51.399153" lon="5.344247">
        <ele>26.338695</ele>
        <time>2024-11-28T19:57:00.914Z</time>
      </trkpt>
      <trkpt lat="51.399015" lon="5.344017">
        <ele>26.348764</ele>
        <time>2024-11-28T19:57:04.235Z</time>
      </trkpt>
      <trkpt lat="51.398750" lon="5.343639">
        <ele>26.387014</ele>
        <time>2024-11-28T19:57:10.242Z</time>
      </trkpt>
      <trkpt lat="51.398327" lon="5.343689">
        <ele>26.432747</ele>
        <time>2024-11-28T19:57:21.281Z</time>
      </trkpt>
      <trkpt lat="51.397748" lon="5.344059">
        <ele>26.499956</ele>
        <time>2024-11-28T19:57:37.363Z</time>
      </trkpt>
      <trkpt lat="51.397658" lon="5.344070">
        <ele>26.509688</ele>
        <time>2024-11-28T19:57:39.694Z</time>
      </trkpt>
      <trkpt lat="51.397613" lon="5.344075">
        <ele>26.514552</ele>
        <time>2024-11-28T19:57:40.854Z</time>
      </trkpt>
      <trkpt lat="51.397463" lon="5.344075">
        <ele>26.542749</ele>
        <time>2024-11-28T19:57:44.742Z</time>
      </trkpt>
      <trkpt lat="51.396904" lon="5.344005">
        <ele>26.727816</ele>
        <time>2024-11-28T19:57:59.467Z</time>
      </trkpt>
      <trkpt lat="51.396760" lon="5.343949">
        <ele>26.776724</ele>
        <time>2024-11-28T19:58:03.424Z</time>
      </trkpt>
      <trkpt lat="51.396465" lon="5.343740">
        <ele>26.883180</ele>
        <time>2024-11-28T19:58:12.133Z</time>
      </trkpt>
      <trkpt lat="51.395603" lon="5.342694">
        <ele>27.229692</ele>
        <time>2024-11-28T19:58:41.456Z</time>
      </trkpt>
      <trkpt lat="51.395385" lon="5.342466">
        <ele>27.308292</ele>
        <time>2024-11-28T19:58:48.339Z</time>
      </trkpt>
      <trkpt lat="51.395243" lon="5.342384">
        <ele>27.353867</ele>
        <time>2024-11-28T19:58:52.304Z</time>
      </trkpt>
      <trkpt lat="51.394973" lon="5.342133">
        <ele>27.448114</ele>
        <time>2024-11-28T19:59:00.558Z</time>
      </trkpt>
      <trkpt lat="51.394791" lon="5.341859">
        <ele>27.523512</ele>
        <time>2024-11-28T19:59:07.207Z</time>
      </trkpt>
      <trkpt lat="51.394715" lon="5.341790">
        <ele>27.549886</ele>
        <time>2024-11-28T19:59:09.569Z</time>
      </trkpt>
      <trkpt lat="51.394701" lon="5.341790">
        <ele>27.554113</ele>
        <time>2024-11-28T19:59:09.931Z</time>
      </trkpt>
      <trkpt lat="51.394555" lon="5.341794">
        <ele>27.598204</ele>
        <time>2024-11-28T19:59:13.819Z</time>
      </trkpt>
      <trkpt lat="51.394107" lon="5.342183">
        <ele>27.765453</ele>
        <time>2024-11-28T19:59:27.206Z</time>
      </trkpt>
      <trkpt lat="51.394178" lon="5.342532">
        <ele>27.844863</ele>
        <time>2024-11-28T19:59:33.309Z</time>
      </trkpt>
      <trkpt lat="51.394299" lon="5.342873">
        <ele>27.929725</ele>
        <time>2024-11-28T19:59:39.974Z</time>
      </trkpt>
      <trkpt lat="51.394334" lon="5.343061">
        <ele>27.972166</ele>
        <time>2024-11-28T19:59:43.313Z</time>
      </trkpt>
      <trkpt lat="51.394304" lon="5.343523">
        <ele>28.072649</ele>
        <time>2024-11-28T19:59:51.204Z</time>
      </trkpt>
      <trkpt lat="51.394224" lon="5.343803">
        <ele>28.139269</ele>
        <time>2024-11-28T19:59:56.378Z</time>
      </trkpt>
      <trkpt lat="51.394095" lon="5.344074">
        <ele>28.213006</ele>
        <time>2024-11-28T20:00:02.036Z</time>
      </trkpt>
      <trkpt lat="51.393877" lon="5.344333">
        <ele>28.303653</ele>
        <time>2024-11-28T20:00:09.137Z</time>
      </trkpt>
      <trkpt lat="51.393340" lon="5.344930">
        <ele>28.494600</ele>
        <time>2024-11-28T20:00:26.530Z</time>
      </trkpt>
      <trkpt lat="51.393100" lon="5.345066">
        <ele>28.568975</ele>
        <time>2024-11-28T20:00:33.377Z</time>
      </trkpt>
      <trkpt lat="51.392689" lon="5.345396">
        <ele>28.703283</ele>
        <time>2024-11-28T20:00:45.651Z</time>
      </trkpt>
      <trkpt lat="51.392326" lon="5.345818">
        <ele>28.821802</ele>
        <time>2024-11-28T20:00:57.587Z</time>
      </trkpt>
      <trkpt lat="51.392173" lon="5.345947">
        <ele>28.845503</ele>
        <time>2024-11-28T20:01:02.156Z</time>
      </trkpt>
      <trkpt lat="51.391244" lon="5.346315">
        <ele>28.976695</ele>
        <time>2024-11-28T20:01:26.975Z</time>
      </trkpt>
      <trkpt lat="51.390470" lon="5.346706">
        <ele>29.043184</ele>
        <time>2024-11-28T20:01:47.762Z</time>
      </trkpt>
      <trkpt lat="51.389445" lon="5.347319">
        <ele>28.973904</ele>
        <time>2024-11-28T20:02:15.676Z</time>
      </trkpt>
      <trkpt lat="51.387248" lon="5.348738">
        <ele>28.338272</ele>
        <time>2024-11-28T20:03:14.265Z</time>
      </trkpt>
      <trkpt lat="51.387170" lon="5.348788">
        <ele>28.308776</ele>
        <time>2024-11-28T20:03:16.296Z</time>
      </trkpt>
      <trkpt lat="51.387136" lon="5.348804">
        <ele>28.296334</ele>
        <time>2024-11-28T20:03:17.163Z</time>
      </trkpt>
      <trkpt lat="51.387247" lon="5.349713">
        <ele>28.093389</ele>
        <time>2024-11-28T20:03:25.418Z</time>
      </trkpt>
      <trkpt lat="51.387832" lon="5.351853">
        <ele>27.670462</ele>
        <time>2024-11-28T20:03:46.865Z</time>
      </trkpt>
      <trkpt lat="51.387978" lon="5.352478">
        <ele>27.607381</ele>
        <time>2024-11-28T20:03:53.179Z</time>
      </trkpt>
      <trkpt lat="51.388015" lon="5.352451">
        <ele>27.601222</ele>
        <time>2024-11-28T20:03:54.217Z</time>
      </trkpt>
      <trkpt lat="51.388194" lon="5.353258">
        <ele>27.520267</ele>
        <time>2024-11-28T20:04:03.347Z</time>
      </trkpt>
      <trkpt lat="51.388301" lon="5.353688">
        <ele>27.476509</ele>
        <time>2024-11-28T20:04:07.714Z</time>
      </trkpt>
      <trkpt lat="51.388210" lon="5.353717">
        <ele>27.455740</ele>
        <time>2024-11-28T20:04:09.066Z</time>
      </trkpt>
      <trkpt lat="51.388223" lon="5.353771">
        <ele>27.438312</ele>
        <time>2024-11-28T20:04:09.607Z</time>
      </trkpt>
      <trkpt lat="51.388242" lon="5.353862">
        <ele>27.409418</ele>
        <time>2024-11-28T20:04:10.482Z</time>
      </trkpt>
      <trkpt lat="51.388261" lon="5.353944">
        <ele>27.383079</ele>
        <time>2024-11-28T20:04:11.268Z</time>
      </trkpt>
      <trkpt lat="51.388287" lon="5.354054">
        <ele>27.347661</ele>
        <time>2024-11-28T20:04:12.350Z</time>
      </trkpt>
      <trkpt lat="51.388261" lon="5.353944">
        <ele>27.312242</ele>
        <time>2024-11-28T20:04:13.401Z</time>
      </trkpt>
      <trkpt lat="51.388242" lon="5.353862">
        <ele>27.285904</ele>
        <time>2024-11-28T20:04:14.201Z</time>
      </trkpt>
      <trkpt lat="51.388223" lon="5.353771">
        <ele>27.257010</ele>
        <time>2024-11-28T20:04:15.061Z</time>
      </trkpt>
      <trkpt lat="51.388210" lon="5.353717">
        <ele>27.239581</ele>
        <time>2024-11-28T20:04:15.571Z</time>
      </trkpt>
      <trkpt lat="51.388301" lon="5.353688">
        <ele>27.194812</ele>
        <time>2024-11-28T20:04:16.913Z</time>
      </trkpt>
      <trkpt lat="51.388331" lon="5.353830">
        <ele>27.149670</ele>
        <time>2024-11-28T20:04:19.186Z</time>
      </trkpt>
      <trkpt lat="51.388500" lon="5.354679">
        <ele>26.881336</ele>
        <time>2024-11-28T20:04:32.658Z</time>
      </trkpt>
      <trkpt lat="51.388598" lon="5.355216">
        <ele>26.712868</ele>
        <time>2024-11-28T20:04:41.077Z</time>
      </trkpt>
      <trkpt lat="51.388570" lon="5.355228">
        <ele>26.698882</ele>
        <time>2024-11-28T20:04:41.762Z</time>
      </trkpt>
      <trkpt lat="51.387400" lon="5.355718">
        <ele>26.088909</ele>
        <time>2024-11-28T20:05:10.980Z</time>
      </trkpt>
      <trkpt lat="51.387282" lon="5.355768">
        <ele>26.026784</ele>
        <time>2024-11-28T20:05:13.954Z</time>
      </trkpt>
      <trkpt lat="51.387633" lon="5.356953">
        <ele>25.637837</ele>
        <time>2024-11-28T20:05:33.908Z</time>
      </trkpt>
      <trkpt lat="51.387373" lon="5.357052">
        <ele>25.554143</ele>
        <time>2024-11-28T20:05:40.442Z</time>
      </trkpt>
      <trkpt lat="51.387649" lon="5.358249">
        <ele>25.304744</ele>
        <time>2024-11-28T20:05:59.982Z</time>
      </trkpt>
      <trkpt lat="51.388007" lon="5.359534">
        <ele>25.194224</ele>
        <time>2024-11-28T20:06:21.934Z</time>
      </trkpt>
      <trkpt lat="51.388117" lon="5.359480">
        <ele>25.224694</ele>
        <time>2024-11-28T20:06:24.901Z</time>
      </trkpt>
      <trkpt lat="51.388465" lon="5.360623">
        <ele>25.434893</ele>
        <time>2024-11-28T20:06:46.222Z</time>
      </trkpt>
      <trkpt lat="51.389433" lon="5.360178">
        <ele>25.697350</ele>
        <time>2024-11-28T20:07:13.878Z</time>
      </trkpt>
      <trkpt lat="51.389482" lon="5.360227">
        <ele>25.712034</ele>
        <time>2024-11-28T20:07:15.442Z</time>
      </trkpt>
      <trkpt lat="51.389545" lon="5.360259">
        <ele>25.728837</ele>
        <time>2024-11-28T20:07:17.240Z</time>
      </trkpt>
      <trkpt lat="51.389651" lon="5.360247">
        <ele>25.755854</ele>
        <time>2024-11-28T20:07:20.122Z</time>
      </trkpt>
      <trkpt lat="51.389706" lon="5.360329">
        <ele>25.774953</ele>
        <time>2024-11-28T20:07:22.125Z</time>
      </trkpt>
      <trkpt lat="51.389736" lon="5.360333">
        <ele>25.782607</ele>
        <time>2024-11-28T20:07:22.936Z</time>
      </trkpt>
      <trkpt lat="51.389834" lon="5.360023">
        <ele>25.837741</ele>
        <time>2024-11-28T20:07:28.696Z</time>
      </trkpt>
      <trkpt lat="51.390182" lon="5.359869">
        <ele>25.929529</ele>
        <time>2024-11-28T20:07:38.128Z</time>
      </trkpt>
      <trkpt lat="51.390209" lon="5.359779">
        <ele>25.945372</ele>
        <time>2024-11-28T20:07:39.729Z</time>
      </trkpt>
      <trkpt lat="51.390209" lon="5.359662">
        <ele>25.963934</ele>
        <time>2024-11-28T20:07:41.587Z</time>
      </trkpt>
      <trkpt lat="51.390266" lon="5.359617">
        <ele>25.980089</ele>
        <time>2024-11-28T20:07:43.204Z</time>
      </trkpt>
      <trkpt lat="51.390126" lon="5.358494">
        <ele>26.119867</ele>
        <time>2024-11-28T20:08:01.255Z</time>
      </trkpt>
      <trkpt lat="51.390051" lon="5.358280">
        <ele>26.143870</ele>
        <time>2024-11-28T20:08:05.168Z</time>
      </trkpt>
      <trkpt lat="51.389853" lon="5.358354">
        <ele>26.175734</ele>
        <time>2024-11-28T20:08:10.434Z</time>
      </trkpt>
      <trkpt lat="51.389822" lon="5.358287">
        <ele>26.183891</ele>
        <time>2024-11-28T20:08:11.796Z</time>
      </trkpt>
      <trkpt lat="51.389588" lon="5.358111">
        <ele>26.224402</ele>
        <time>2024-11-28T20:08:18.572Z</time>
      </trkpt>
      <trkpt lat="51.389524" lon="5.358010">
        <ele>26.238480</ele>
        <time>2024-11-28T20:08:20.949Z</time>
      </trkpt>
      <trkpt lat="51.389470" lon="5.357725">
        <ele>26.267609</ele>
        <time>2024-11-28T20:08:25.893Z</time>
      </trkpt>
      <trkpt lat="51.389431" lon="5.357648">
        <ele>26.277308</ele>
        <time>2024-11-28T20:08:27.528Z</time>
      </trkpt>
      <trkpt lat="51.389272" lon="5.357686">
        <ele>26.302502</ele>
        <time>2024-11-28T20:08:31.826Z</time>
      </trkpt>
      <trkpt lat="51.389226" lon="5.357667">
        <ele>26.309947</ele>
        <time>2024-11-28T20:08:33.109Z</time>
      </trkpt>
      <trkpt lat="51.389204" lon="5.357585">
        <ele>26.318676</ele>
        <time>2024-11-28T20:08:34.599Z</time>
      </trkpt>
      <trkpt lat="51.389232" lon="5.357483">
        <ele>26.329574</ele>
        <time>2024-11-28T20:08:36.474Z</time>
      </trkpt>
      <trkpt lat="51.389380" lon="5.357349">
        <ele>26.390759</ele>
        <time>2024-11-28T20:08:41.023Z</time>
      </trkpt>
      <trkpt lat="51.389405" lon="5.357207">
        <ele>26.428042</ele>
        <time>2024-11-28T20:08:43.492Z</time>
      </trkpt>
      <trkpt lat="51.389400" lon="5.357098">
        <ele>26.455659</ele>
        <time>2024-11-28T20:08:45.329Z</time>
      </trkpt>
      <trkpt lat="51.389121" lon="5.356539">
        <ele>26.636536</ele>
        <time>2024-11-28T20:08:57.242Z</time>
      </trkpt>
      <trkpt lat="51.389093" lon="5.356413">
        <ele>26.670333</ele>
        <time>2024-11-28T20:08:59.472Z</time>
      </trkpt>
      <trkpt lat="51.389184" lon="5.356221">
        <ele>26.731257</ele>
        <time>2024-11-28T20:09:03.492Z</time>
      </trkpt>
      <trkpt lat="51.389225" lon="5.355866">
        <ele>26.822485</ele>
        <time>2024-11-28T20:09:09.561Z</time>
      </trkpt>
      <trkpt lat="51.389482" lon="5.355671">
        <ele>26.937629</ele>
        <time>2024-11-28T20:09:17.314Z</time>
      </trkpt>
      <trkpt lat="51.389569" lon="5.355658">
        <ele>26.973011</ele>
        <time>2024-11-28T20:09:19.719Z</time>
      </trkpt>
      <trkpt lat="51.389627" lon="5.355382">
        <ele>27.046602</ele>
        <time>2024-11-28T20:09:24.738Z</time>
      </trkpt>
      <trkpt lat="51.389679" lon="5.355273">
        <ele>27.085441</ele>
        <time>2024-11-28T20:09:27.115Z</time>
      </trkpt>
      <trkpt lat="51.389916" lon="5.355028">
        <ele>27.225338</ele>
        <time>2024-11-28T20:09:34.977Z</time>
      </trkpt>
      <trkpt lat="51.390149" lon="5.354987">
        <ele>27.341608</ele>
        <time>2024-11-28T20:09:41.510Z</time>
      </trkpt>
      <trkpt lat="51.390318" lon="5.354865">
        <ele>27.433551</ele>
        <time>2024-11-28T20:09:46.661Z</time>
      </trkpt>
      <trkpt lat="51.390534" lon="5.354833">
        <ele>27.541150</ele>
        <time>2024-11-28T20:09:52.740Z</time>
      </trkpt>
      <trkpt lat="51.390727" lon="5.354542">
        <ele>27.672596</ele>
        <time>2024-11-28T20:10:00.219Z</time>
      </trkpt>
      <trkpt lat="51.390814" lon="5.354500">
        <ele>27.717667</ele>
        <time>2024-11-28T20:10:02.781Z</time>
      </trkpt>
      <trkpt lat="51.390875" lon="5.354263">
        <ele>27.797020</ele>
        <time>2024-11-28T20:10:07.189Z</time>
      </trkpt>
      <trkpt lat="51.390938" lon="5.354204">
        <ele>27.833214</ele>
        <time>2024-11-28T20:10:09.196Z</time>
      </trkpt>
      <trkpt lat="51.391173" lon="5.354450">
        <ele>27.954011</ele>
        <time>2024-11-28T20:10:14.013Z</time>
      </trkpt>
      <trkpt lat="51.391346" lon="5.354576">
        <ele>27.949127</ele>
        <time>2024-11-28T20:10:18.872Z</time>
      </trkpt>
      <trkpt lat="51.391485" lon="5.354678">
        <ele>27.945197</ele>
        <time>2024-11-28T20:10:22.732Z</time>
      </trkpt>
      <trkpt lat="51.391622" lon="5.354700">
        <ele>27.941657</ele>
        <time>2024-11-28T20:10:26.156Z</time>
      </trkpt>
      <trkpt lat="51.392524" lon="5.354586">
        <ele>27.918398</ele>
        <time>2024-11-28T20:10:48.873Z</time>
      </trkpt>
      <trkpt lat="51.392725" lon="5.354505">
        <ele>27.913070</ele>
        <time>2024-11-28T20:10:54.105Z</time>
      </trkpt>
      <trkpt lat="51.392995" lon="5.354459">
        <ele>27.906312</ele>
        <time>2024-11-28T20:11:00.984Z</time>
      </trkpt>
      <trkpt lat="51.393668" lon="5.354191">
        <ele>27.890004</ele>
        <time>2024-11-28T20:11:18.753Z</time>
      </trkpt>
      <trkpt lat="51.394557" lon="5.353774">
        <ele>27.868221</ele>
        <time>2024-11-28T20:11:42.464Z</time>
      </trkpt>
      <trkpt lat="51.394745" lon="5.353650">
        <ele>27.815506</ele>
        <time>2024-11-28T20:11:47.482Z</time>
      </trkpt>
      <trkpt lat="51.394997" lon="5.353385">
        <ele>27.693095</ele>
        <time>2024-11-28T20:11:54.867Z</time>
      </trkpt>
      <trkpt lat="51.395100" lon="5.353249">
        <ele>27.638895</ele>
        <time>2024-11-28T20:11:58.135Z</time>
      </trkpt>
      <trkpt lat="51.395160" lon="5.353088">
        <ele>27.591373</ele>
        <time>2024-11-28T20:12:00.984Z</time>
      </trkpt>
      <trkpt lat="51.396599" lon="5.352595">
        <ele>27.086347</ele>
        <time>2024-11-28T20:12:36.729Z</time>
      </trkpt>
      <trkpt lat="51.398266" lon="5.352272">
        <ele>26.817049</ele>
        <time>2024-11-28T20:13:19.416Z</time>
      </trkpt>
      <trkpt lat="51.398618" lon="5.352270">
        <ele>26.718927</ele>
        <time>2024-11-28T20:13:28.204Z</time>
      </trkpt>
      <trkpt lat="51.398730" lon="5.352301">
        <ele>26.687245</ele>
        <time>2024-11-28T20:13:31.000Z</time>
      </trkpt>
      <trkpt lat="51.398742" lon="5.352304">
        <ele>26.683859</ele>
        <time>2024-11-28T20:13:31.306Z</time>
      </trkpt>
      <trkpt lat="51.398968" lon="5.352429">
        <ele>26.617215</ele>
        <time>2024-11-28T20:13:37.140Z</time>
      </trkpt>
      <trkpt lat="51.399013" lon="5.350869">
        <ele>26.370492</ele>
        <time>2024-11-28T20:13:51.166Z</time>
      </trkpt>
      <trkpt lat="51.399020" lon="5.350651">
        <ele>26.360055</ele>
        <time>2024-11-28T20:13:53.140Z</time>
      </trkpt>
      <trkpt lat="51.399076" lon="5.348805">
        <ele>26.271682</ele>
        <time>2024-11-28T20:14:10.717Z</time>
      </trkpt>
      <trkpt lat="51.399053" lon="5.348723">
        <ele>26.267383</ele>
        <time>2024-11-28T20:14:11.612Z</time>
      </trkpt>
      <trkpt lat="51.399090" lon="5.348628">
        <ele>26.262028</ele>
        <time>2024-11-28T20:14:13.061Z</time>
      </trkpt>
      <trkpt lat="51.399095" lon="5.348467">
        <ele>26.254320</ele>
        <time>2024-11-28T20:14:15.138Z</time>
      </trkpt>
      <trkpt lat="51.399103" lon="5.348142">
        <ele>26.238264</ele>
        <time>2024-11-28T20:14:19.288Z</time>
      </trkpt>
      <trkpt lat="51.399128" lon="5.348085">
        <ele>26.234425</ele>
        <time>2024-11-28T20:14:20.192Z</time>
      </trkpt>
      <trkpt lat="51.399318" lon="5.347971">
        <ele>26.216505</ele>
        <time>2024-11-28T20:14:24.388Z</time>
      </trkpt>
      <trkpt lat="51.399415" lon="5.347912">
        <ele>26.207342</ele>
        <time>2024-11-28T20:14:26.551Z</time>
      </trkpt>
      <trkpt lat="51.400018" lon="5.347548">
        <ele>26.150429</ele>
        <time>2024-11-28T20:14:40.003Z</time>
      </trkpt>
      <trkpt lat="51.400071" lon="5.347456">
        <ele>26.143529</ele>
        <time>2024-11-28T20:14:41.572Z</time>
      </trkpt>
      <trkpt lat="51.400394" lon="5.347923">
        <ele>26.105108</ele>
        <time>2024-11-28T20:14:50.107Z</time>
      </trkpt>
      <trkpt lat="51.400579" lon="5.348192">
        <ele>26.082092</ele>
        <time>2024-11-28T20:14:54.910Z</time>
      </trkpt>
      <trkpt lat="51.400652" lon="5.348323">
        <ele>26.014629</ele>
        <time>2024-11-28T20:14:57.008Z</time>
      </trkpt>
      <trkpt lat="51.401329" lon="5.349424">
        <ele>25.420883</ele>
        <time>2024-11-28T20:15:15.212Z</time>
      </trkpt>
      <trkpt lat="51.401803" lon="5.350530">
        <ele>24.954586</ele>
        <time>2024-11-28T20:15:30.860Z</time>
      </trkpt>
      <trkpt lat="51.402134" lon="5.351171">
        <ele>24.857857</ele>
        <time>2024-11-28T20:15:40.880Z</time>
      </trkpt>
      <trkpt lat="51.402177" lon="5.351404">
        <ele>24.829612</ele>
        <time>2024-11-28T20:15:43.235Z</time>
      </trkpt>
      <trkpt lat="51.402294" lon="5.351517">
        <ele>24.804159</ele>
        <time>2024-11-28T20:15:45.375Z</time>
      </trkpt>
      <trkpt lat="51.403898" lon="5.353062">
        <ele>24.972799</ele>
        <time>2024-11-28T20:16:15.002Z</time>
      </trkpt>
      <trkpt lat="51.404972" lon="5.354084">
        <ele>25.369941</ele>
        <time>2024-11-28T20:16:36.934Z</time>
      </trkpt>
      <trkpt lat="51.405404" lon="5.354566">
        <ele>25.522050</ele>
        <time>2024-11-28T20:16:45.811Z</time>
      </trkpt>
      <trkpt lat="51.406092" lon="5.355437">
        <ele>25.758024</ele>
        <time>2024-11-28T20:16:59.814Z</time>
      </trkpt>
      <trkpt lat="51.406264" lon="5.355606">
        <ele>25.744684</ele>
        <time>2024-11-28T20:17:02.914Z</time>
      </trkpt>
      <trkpt lat="51.407416" lon="5.356069">
        <ele>25.666147</ele>
        <time>2024-11-28T20:17:21.007Z</time>
      </trkpt>
      <trkpt lat="51.407601" lon="5.356153">
        <ele>25.653432</ele>
        <time>2024-11-28T20:17:23.906Z</time>
      </trkpt>
      <trkpt lat="51.408549" lon="5.356518">
        <ele>25.592345</ele>
        <time>2024-11-28T20:17:39.273Z</time>
      </trkpt>
      <trkpt lat="51.408707" lon="5.356597">
        <ele>25.582094</ele>
        <time>2024-11-28T20:17:41.914Z</time>
      </trkpt>
      <trkpt lat="51.409171" lon="5.356721">
        <ele>25.552961</ele>
        <time>2024-11-28T20:17:49.158Z</time>
      </trkpt>
      <trkpt lat="51.409379" lon="5.356825">
        <ele>25.539467</ele>
        <time>2024-11-28T20:17:52.526Z</time>
      </trkpt>
      <trkpt lat="51.410209" lon="5.357476">
        <ele>25.370744</ele>
        <time>2024-11-28T20:18:06.959Z</time>
      </trkpt>
      <trkpt lat="51.411104" lon="5.358226">
        <ele>25.164957</ele>
        <time>2024-11-28T20:18:21.773Z</time>
      </trkpt>
      <trkpt lat="51.411211" lon="5.358337">
        <ele>25.092908</ele>
        <time>2024-11-28T20:18:23.528Z</time>
      </trkpt>
      <trkpt lat="51.411503" lon="5.358539">
        <ele>24.910635</ele>
        <time>2024-11-28T20:18:27.847Z</time>
      </trkpt>
      <trkpt lat="51.412137" lon="5.358831">
        <ele>24.532565</ele>
        <time>2024-11-28T20:18:36.808Z</time>
      </trkpt>
      <trkpt lat="51.412253" lon="5.358835">
        <ele>24.466065</ele>
        <time>2024-11-28T20:18:38.413Z</time>
      </trkpt>
      <trkpt lat="51.412495" lon="5.358843">
        <ele>24.327334</ele>
        <time>2024-11-28T20:18:41.839Z</time>
      </trkpt>
      <trkpt lat="51.412622" lon="5.358882">
        <ele>24.253222</ele>
        <time>2024-11-28T20:18:43.738Z</time>
      </trkpt>
      <trkpt lat="51.412740" lon="5.358862">
        <ele>24.185214</ele>
        <time>2024-11-28T20:18:45.520Z</time>
      </trkpt>
      <trkpt lat="51.412893" lon="5.358752">
        <ele>24.142897</ele>
        <time>2024-11-28T20:18:48.113Z</time>
      </trkpt>
      <trkpt lat="51.413565" lon="5.358714">
        <ele>24.224217</ele>
        <time>2024-11-28T20:19:02.650Z</time>
      </trkpt>
      <trkpt lat="51.413647" lon="5.358794">
        <ele>24.235826</ele>
        <time>2024-11-28T20:19:04.742Z</time>
      </trkpt>
      <trkpt lat="51.413714" lon="5.358722">
        <ele>24.245580</ele>
        <time>2024-11-28T20:19:06.516Z</time>
      </trkpt>
      <trkpt lat="51.413990" lon="5.358705">
        <ele>24.278984</ele>
        <time>2024-11-28T20:19:12.518Z</time>
      </trkpt>
      <trkpt lat="51.414037" lon="5.358701">
        <ele>24.284676</ele>
        <time>2024-11-28T20:19:13.536Z</time>
      </trkpt>
      <trkpt lat="51.414310" lon="5.358640">
        <ele>24.318011</ele>
        <time>2024-11-28T20:19:19.329Z</time>
      </trkpt>
      <trkpt lat="51.414654" lon="5.358457">
        <ele>24.324268</ele>
        <time>2024-11-28T20:19:26.623Z</time>
      </trkpt>
      <trkpt lat="51.414959" lon="5.358321">
        <ele>24.229289</ele>
        <time>2024-11-28T20:19:32.766Z</time>
      </trkpt>
      <trkpt lat="51.415288" lon="5.358240">
        <ele>24.129425</ele>
        <time>2024-11-28T20:19:39.051Z</time>
      </trkpt>
      <trkpt lat="51.415390" lon="5.357652">
        <ele>24.015225</ele>
        <time>2024-11-28T20:19:44.490Z</time>
      </trkpt>
      <trkpt lat="51.415388" lon="5.356552">
        <ele>23.810012</ele>
        <time>2024-11-28T20:19:54.768Z</time>
      </trkpt>
      <trkpt lat="51.415390" lon="5.356072">
        <ele>23.747516</ele>
        <time>2024-11-28T20:19:59.252Z</time>
      </trkpt>
      <trkpt lat="51.415434" lon="5.355676">
        <ele>23.695147</ele>
        <time>2024-11-28T20:20:02.990Z</time>
      </trkpt>
      <trkpt lat="51.415516" lon="5.355344">
        <ele>23.648655</ele>
        <time>2024-11-28T20:20:06.298Z</time>
      </trkpt>
      <trkpt lat="51.415892" lon="5.354141">
        <ele>23.473462</ele>
        <time>2024-11-28T20:20:18.817Z</time>
      </trkpt>
      <trkpt lat="51.415955" lon="5.353860">
        <ele>23.435523</ele>
        <time>2024-11-28T20:20:21.505Z</time>
      </trkpt>
      <trkpt lat="51.415965" lon="5.353674">
        <ele>23.428106</ele>
        <time>2024-11-28T20:20:23.169Z</time>
      </trkpt>
      <trkpt lat="51.415850" lon="5.352700">
        <ele>23.388723</ele>
        <time>2024-11-28T20:20:32.212Z</time>
      </trkpt>
      <trkpt lat="51.415837" lon="5.352622">
        <ele>23.385515</ele>
        <time>2024-11-28T20:20:32.967Z</time>
      </trkpt>
      <trkpt lat="51.415670" lon="5.351624">
        <ele>23.344464</ele>
        <time>2024-11-28T20:20:42.868Z</time>
      </trkpt>
      <trkpt lat="51.417400" lon="5.350696">
        <ele>23.321358</ele>
        <time>2024-11-28T20:21:14.615Z</time>
      </trkpt>
      <trkpt lat="51.417428" lon="5.351305">
        <ele>23.321358</ele>
        <time>2024-11-28T20:21:20.854Z</time>
      </trkpt>
      <trkpt lat="51.417415" lon="5.351557">
        <ele>23.321358</ele>
        <time>2024-11-28T20:21:23.403Z</time>
      </trkpt>
      <trkpt lat="51.417375" lon="5.351724">
        <ele>23.321358</ele>
        <time>2024-11-28T20:21:25.189Z</time>
      </trkpt>
      <trkpt lat="51.417313" lon="5.351877">
        <ele>23.321358</ele>
        <time>2024-11-28T20:21:27.005Z</time>
      </trkpt>
    </trkseg>
  </trk>
</gpx>